<?xml version="1.0" encoding="UTF-8" standalone="no" ?>
<gpx xmlns="http://www.topografix.com/GPX/1/1" xmlns:xsi="http://www.w3.org/2001/XMLSchema-instance" xsi:schemaLocation="http://www.topografix.com/GPX/1/1 http://www.topografix.com/GPX/1/1/gpx.xsd" version="1.1" creator="VisuGPX - https://www.visugpx.com">
  <metadata>
    <name>randonnée saint menges</name>
    <desc><![CDATA[beau temps la plus marche cette année]]></desc>
  </metadata>
  <trk>
    <name><![CDATA[Tracé actuel: 02 SEPT 2018 08:43]]></name>
    <trkseg>
      <trkpt lat="49.73886" lon="4.9243">
        <ele>210.67</ele>
        <time>2018-09-02T06:43:37Z</time>
      </trkpt>
      <trkpt lat="49.73887" lon="4.92434">
        <ele>207.78</ele>
        <time>2018-09-02T06:43:55Z</time>
      </trkpt>
      <trkpt lat="49.73888" lon="4.92433">
        <ele>208.74</ele>
        <time>2018-09-02T06:44:24Z</time>
      </trkpt>
      <trkpt lat="49.73889" lon="4.92437">
        <ele>207.78</ele>
        <time>2018-09-02T06:44:38Z</time>
      </trkpt>
      <trkpt lat="49.73889" lon="4.92442">
        <ele>206.82</ele>
        <time>2018-09-02T06:44:56Z</time>
      </trkpt>
      <trkpt lat="49.73889" lon="4.92445">
        <ele>206.34</ele>
        <time>2018-09-02T06:45:09Z</time>
      </trkpt>
      <trkpt lat="49.73893" lon="4.92439">
        <ele>206.82</ele>
        <time>2018-09-02T06:45:21Z</time>
      </trkpt>
      <trkpt lat="49.73893" lon="4.92439">
        <ele>206.82</ele>
        <time>2018-09-02T06:45:22Z</time>
      </trkpt>
      <trkpt lat="49.73899" lon="4.92434">
        <ele>211.15</ele>
        <time>2018-09-02T06:45:35Z</time>
      </trkpt>
      <trkpt lat="49.73904" lon="4.9243">
        <ele>212.11</ele>
        <time>2018-09-02T06:45:47Z</time>
      </trkpt>
      <trkpt lat="49.73905" lon="4.92429">
        <ele>211.15</ele>
        <time>2018-09-02T06:45:50Z</time>
      </trkpt>
      <trkpt lat="49.73915" lon="4.92419">
        <ele>211.15</ele>
        <time>2018-09-02T06:46:02Z</time>
      </trkpt>
      <trkpt lat="49.73921" lon="4.92415">
        <ele>214.03</ele>
        <time>2018-09-02T06:46:12Z</time>
      </trkpt>
      <trkpt lat="49.7393" lon="4.92405">
        <ele>212.59</ele>
        <time>2018-09-02T06:46:21Z</time>
      </trkpt>
      <trkpt lat="49.73939" lon="4.92391">
        <ele>208.26</ele>
        <time>2018-09-02T06:46:34Z</time>
      </trkpt>
      <trkpt lat="49.7394" lon="4.92388">
        <ele>206.82</ele>
        <time>2018-09-02T06:46:37Z</time>
      </trkpt>
      <trkpt lat="49.7395" lon="4.9237">
        <ele>203.94</ele>
        <time>2018-09-02T06:46:52Z</time>
      </trkpt>
      <trkpt lat="49.73963" lon="4.92355">
        <ele>199.13</ele>
        <time>2018-09-02T06:47:07Z</time>
      </trkpt>
      <trkpt lat="49.73973" lon="4.92344">
        <ele>198.65</ele>
        <time>2018-09-02T06:47:20Z</time>
      </trkpt>
      <trkpt lat="49.73975" lon="4.92342">
        <ele>198.65</ele>
        <time>2018-09-02T06:47:23Z</time>
      </trkpt>
      <trkpt lat="49.73986" lon="4.92328">
        <ele>198.65</ele>
        <time>2018-09-02T06:47:38Z</time>
      </trkpt>
      <trkpt lat="49.73988" lon="4.92326">
        <ele>199.13</ele>
        <time>2018-09-02T06:47:51Z</time>
      </trkpt>
      <trkpt lat="49.73988" lon="4.92324">
        <ele>199.13</ele>
        <time>2018-09-02T06:48:08Z</time>
      </trkpt>
      <trkpt lat="49.73989" lon="4.92323">
        <ele>199.13</ele>
        <time>2018-09-02T06:48:09Z</time>
      </trkpt>
      <trkpt lat="49.73998" lon="4.92316">
        <ele>199.61</ele>
        <time>2018-09-02T06:48:22Z</time>
      </trkpt>
      <trkpt lat="49.74004" lon="4.92306">
        <ele>201.53</ele>
        <time>2018-09-02T06:48:33Z</time>
      </trkpt>
      <trkpt lat="49.74011" lon="4.9229">
        <ele>203.46</ele>
        <time>2018-09-02T06:48:46Z</time>
      </trkpt>
      <trkpt lat="49.74021" lon="4.92274">
        <ele>203.94</ele>
        <time>2018-09-02T06:48:58Z</time>
      </trkpt>
      <trkpt lat="49.74029" lon="4.92256">
        <ele>203.94</ele>
        <time>2018-09-02T06:49:12Z</time>
      </trkpt>
      <trkpt lat="49.74042" lon="4.92231">
        <ele>202.98</ele>
        <time>2018-09-02T06:49:26Z</time>
      </trkpt>
      <trkpt lat="49.7405" lon="4.92209">
        <ele>200.09</ele>
        <time>2018-09-02T06:49:41Z</time>
      </trkpt>
      <trkpt lat="49.74061" lon="4.92187">
        <ele>199.61</ele>
        <time>2018-09-02T06:49:56Z</time>
      </trkpt>
      <trkpt lat="49.74062" lon="4.92183">
        <ele>199.13</ele>
        <time>2018-09-02T06:49:58Z</time>
      </trkpt>
      <trkpt lat="49.74072" lon="4.92162">
        <ele>199.61</ele>
        <time>2018-09-02T06:50:13Z</time>
      </trkpt>
      <trkpt lat="49.74082" lon="4.92143">
        <ele>198.65</ele>
        <time>2018-09-02T06:50:27Z</time>
      </trkpt>
      <trkpt lat="49.74089" lon="4.92133">
        <ele>200.09</ele>
        <time>2018-09-02T06:50:35Z</time>
      </trkpt>
      <trkpt lat="49.74098" lon="4.92125">
        <ele>202.01</ele>
        <time>2018-09-02T06:50:46Z</time>
      </trkpt>
      <trkpt lat="49.74117" lon="4.92119">
        <ele>205.86</ele>
        <time>2018-09-02T06:51:00Z</time>
      </trkpt>
      <trkpt lat="49.74125" lon="4.92117">
        <ele>210.19</ele>
        <time>2018-09-02T06:51:10Z</time>
      </trkpt>
      <trkpt lat="49.74127" lon="4.92118">
        <ele>211.15</ele>
        <time>2018-09-02T06:51:12Z</time>
      </trkpt>
      <trkpt lat="49.74132" lon="4.92119">
        <ele>212.11</ele>
        <time>2018-09-02T06:51:16Z</time>
      </trkpt>
      <trkpt lat="49.74144" lon="4.92129">
        <ele>212.59</ele>
        <time>2018-09-02T06:51:27Z</time>
      </trkpt>
      <trkpt lat="49.74148" lon="4.92134">
        <ele>212.59</ele>
        <time>2018-09-02T06:51:31Z</time>
      </trkpt>
      <trkpt lat="49.74161" lon="4.92151">
        <ele>213.55</ele>
        <time>2018-09-02T06:51:48Z</time>
      </trkpt>
      <trkpt lat="49.74166" lon="4.9216">
        <ele>213.07</ele>
        <time>2018-09-02T06:51:55Z</time>
      </trkpt>
      <trkpt lat="49.74172" lon="4.92167">
        <ele>211.15</ele>
        <time>2018-09-02T06:52:01Z</time>
      </trkpt>
      <trkpt lat="49.74178" lon="4.92179">
        <ele>210.67</ele>
        <time>2018-09-02T06:52:12Z</time>
      </trkpt>
      <trkpt lat="49.7418" lon="4.92182">
        <ele>210.67</ele>
        <time>2018-09-02T06:52:15Z</time>
      </trkpt>
      <trkpt lat="49.74184" lon="4.92187">
        <ele>209.7</ele>
        <time>2018-09-02T06:52:19Z</time>
      </trkpt>
      <trkpt lat="49.7419" lon="4.92194">
        <ele>208.74</ele>
        <time>2018-09-02T06:52:24Z</time>
      </trkpt>
      <trkpt lat="49.74207" lon="4.92214">
        <ele>208.26</ele>
        <time>2018-09-02T06:52:40Z</time>
      </trkpt>
      <trkpt lat="49.74216" lon="4.92218">
        <ele>211.15</ele>
        <time>2018-09-02T06:52:51Z</time>
      </trkpt>
      <trkpt lat="49.74225" lon="4.92222">
        <ele>217.88</ele>
        <time>2018-09-02T06:52:58Z</time>
      </trkpt>
      <trkpt lat="49.7423" lon="4.92224">
        <ele>220.76</ele>
        <time>2018-09-02T06:53:03Z</time>
      </trkpt>
      <trkpt lat="49.74233" lon="4.92225">
        <ele>221.24</ele>
        <time>2018-09-02T06:53:05Z</time>
      </trkpt>
      <trkpt lat="49.74241" lon="4.92212">
        <ele>219.32</ele>
        <time>2018-09-02T06:53:19Z</time>
      </trkpt>
      <trkpt lat="49.74259" lon="4.92185">
        <ele>211.15</ele>
        <time>2018-09-02T06:53:35Z</time>
      </trkpt>
      <trkpt lat="49.74262" lon="4.92174">
        <ele>208.74</ele>
        <time>2018-09-02T06:53:42Z</time>
      </trkpt>
      <trkpt lat="49.74269" lon="4.92168">
        <ele>209.7</ele>
        <time>2018-09-02T06:53:47Z</time>
      </trkpt>
      <trkpt lat="49.74272" lon="4.92165">
        <ele>211.15</ele>
        <time>2018-09-02T06:53:54Z</time>
      </trkpt>
      <trkpt lat="49.74286" lon="4.92149">
        <ele>212.11</ele>
        <time>2018-09-02T06:54:05Z</time>
      </trkpt>
      <trkpt lat="49.74291" lon="4.9212">
        <ele>211.15</ele>
        <time>2018-09-02T06:54:18Z</time>
      </trkpt>
      <trkpt lat="49.74289" lon="4.92092">
        <ele>211.63</ele>
        <time>2018-09-02T06:54:31Z</time>
      </trkpt>
      <trkpt lat="49.74283" lon="4.92071">
        <ele>212.11</ele>
        <time>2018-09-02T06:54:44Z</time>
      </trkpt>
      <trkpt lat="49.7428" lon="4.92049">
        <ele>211.15</ele>
        <time>2018-09-02T06:54:56Z</time>
      </trkpt>
      <trkpt lat="49.74278" lon="4.92018">
        <ele>211.63</ele>
        <time>2018-09-02T06:55:10Z</time>
      </trkpt>
      <trkpt lat="49.74277" lon="4.92003">
        <ele>212.11</ele>
        <time>2018-09-02T06:55:19Z</time>
      </trkpt>
      <trkpt lat="49.74281" lon="4.91979">
        <ele>212.59</ele>
        <time>2018-09-02T06:55:33Z</time>
      </trkpt>
      <trkpt lat="49.74284" lon="4.9196">
        <ele>212.59</ele>
        <time>2018-09-02T06:55:40Z</time>
      </trkpt>
      <trkpt lat="49.74288" lon="4.91938">
        <ele>212.11</ele>
        <time>2018-09-02T06:55:54Z</time>
      </trkpt>
      <trkpt lat="49.74288" lon="4.91936">
        <ele>212.59</ele>
        <time>2018-09-02T06:55:55Z</time>
      </trkpt>
      <trkpt lat="49.74295" lon="4.91913">
        <ele>214.51</ele>
        <time>2018-09-02T06:56:08Z</time>
      </trkpt>
      <trkpt lat="49.74295" lon="4.91906">
        <ele>214.51</ele>
        <time>2018-09-02T06:56:12Z</time>
      </trkpt>
      <trkpt lat="49.74297" lon="4.91892">
        <ele>214.03</ele>
        <time>2018-09-02T06:56:18Z</time>
      </trkpt>
      <trkpt lat="49.74299" lon="4.91874">
        <ele>214.03</ele>
        <time>2018-09-02T06:56:29Z</time>
      </trkpt>
      <trkpt lat="49.74301" lon="4.91866">
        <ele>214.51</ele>
        <time>2018-09-02T06:56:33Z</time>
      </trkpt>
      <trkpt lat="49.74307" lon="4.9184">
        <ele>215.95</ele>
        <time>2018-09-02T06:56:47Z</time>
      </trkpt>
      <trkpt lat="49.74314" lon="4.91819">
        <ele>216.43</ele>
        <time>2018-09-02T06:57:00Z</time>
      </trkpt>
      <trkpt lat="49.74323" lon="4.91799">
        <ele>217.4</ele>
        <time>2018-09-02T06:57:13Z</time>
      </trkpt>
      <trkpt lat="49.74335" lon="4.91783">
        <ele>217.88</ele>
        <time>2018-09-02T06:57:25Z</time>
      </trkpt>
      <trkpt lat="49.74341" lon="4.91777">
        <ele>217.88</ele>
        <time>2018-09-02T06:57:33Z</time>
      </trkpt>
      <trkpt lat="49.74351" lon="4.91759">
        <ele>217.88</ele>
        <time>2018-09-02T06:57:46Z</time>
      </trkpt>
      <trkpt lat="49.74361" lon="4.91739">
        <ele>219.8</ele>
        <time>2018-09-02T06:57:59Z</time>
      </trkpt>
      <trkpt lat="49.74367" lon="4.91729">
        <ele>220.76</ele>
        <time>2018-09-02T06:58:08Z</time>
      </trkpt>
      <trkpt lat="49.7438" lon="4.91724">
        <ele>222.68</ele>
        <time>2018-09-02T06:58:19Z</time>
      </trkpt>
      <trkpt lat="49.74394" lon="4.91723">
        <ele>224.61</ele>
        <time>2018-09-02T06:58:31Z</time>
      </trkpt>
      <trkpt lat="49.74406" lon="4.91725">
        <ele>227.49</ele>
        <time>2018-09-02T06:58:43Z</time>
      </trkpt>
      <trkpt lat="49.7442" lon="4.91729">
        <ele>229.41</ele>
        <time>2018-09-02T06:58:55Z</time>
      </trkpt>
      <trkpt lat="49.74435" lon="4.91739">
        <ele>234.22</ele>
        <time>2018-09-02T06:59:07Z</time>
      </trkpt>
      <trkpt lat="49.74447" lon="4.91744">
        <ele>235.66</ele>
        <time>2018-09-02T06:59:18Z</time>
      </trkpt>
      <trkpt lat="49.74461" lon="4.91747">
        <ele>234.7</ele>
        <time>2018-09-02T06:59:30Z</time>
      </trkpt>
      <trkpt lat="49.7447" lon="4.9175">
        <ele>231.81</ele>
        <time>2018-09-02T06:59:43Z</time>
      </trkpt>
      <trkpt lat="49.74483" lon="4.91753">
        <ele>229.41</ele>
        <time>2018-09-02T06:59:55Z</time>
      </trkpt>
      <trkpt lat="49.74498" lon="4.91759">
        <ele>229.89</ele>
        <time>2018-09-02T07:00:06Z</time>
      </trkpt>
      <trkpt lat="49.74514" lon="4.91764">
        <ele>235.18</ele>
        <time>2018-09-02T07:00:18Z</time>
      </trkpt>
      <trkpt lat="49.74529" lon="4.91772">
        <ele>239.99</ele>
        <time>2018-09-02T07:00:30Z</time>
      </trkpt>
      <trkpt lat="49.74535" lon="4.91775">
        <ele>241.43</ele>
        <time>2018-09-02T07:00:36Z</time>
      </trkpt>
      <trkpt lat="49.74543" lon="4.91776">
        <ele>242.87</ele>
        <time>2018-09-02T07:00:43Z</time>
      </trkpt>
      <trkpt lat="49.74547" lon="4.91778">
        <ele>245.27</ele>
        <time>2018-09-02T07:00:49Z</time>
      </trkpt>
      <trkpt lat="49.74551" lon="4.91781">
        <ele>245.75</ele>
        <time>2018-09-02T07:00:52Z</time>
      </trkpt>
      <trkpt lat="49.74559" lon="4.91787">
        <ele>247.2</ele>
        <time>2018-09-02T07:01:00Z</time>
      </trkpt>
      <trkpt lat="49.74563" lon="4.91791">
        <ele>247.2</ele>
        <time>2018-09-02T07:01:04Z</time>
      </trkpt>
      <trkpt lat="49.74572" lon="4.91798">
        <ele>246.72</ele>
        <time>2018-09-02T07:01:15Z</time>
      </trkpt>
      <trkpt lat="49.74575" lon="4.918">
        <ele>246.72</ele>
        <time>2018-09-02T07:01:17Z</time>
      </trkpt>
      <trkpt lat="49.74587" lon="4.91805">
        <ele>247.68</ele>
        <time>2018-09-02T07:01:28Z</time>
      </trkpt>
      <trkpt lat="49.74602" lon="4.91815">
        <ele>246.72</ele>
        <time>2018-09-02T07:01:41Z</time>
      </trkpt>
      <trkpt lat="49.74613" lon="4.91823">
        <ele>248.64</ele>
        <time>2018-09-02T07:01:52Z</time>
      </trkpt>
      <trkpt lat="49.74627" lon="4.91834">
        <ele>250.56</ele>
        <time>2018-09-02T07:02:06Z</time>
      </trkpt>
      <trkpt lat="49.74635" lon="4.91845">
        <ele>252</ele>
        <time>2018-09-02T07:02:14Z</time>
      </trkpt>
      <trkpt lat="49.74647" lon="4.91864">
        <ele>252</ele>
        <time>2018-09-02T07:02:28Z</time>
      </trkpt>
      <trkpt lat="49.74652" lon="4.91872">
        <ele>252</ele>
        <time>2018-09-02T07:02:36Z</time>
      </trkpt>
      <trkpt lat="49.74664" lon="4.91892">
        <ele>251.52</ele>
        <time>2018-09-02T07:02:49Z</time>
      </trkpt>
      <trkpt lat="49.74665" lon="4.91896">
        <ele>251.52</ele>
        <time>2018-09-02T07:02:52Z</time>
      </trkpt>
      <trkpt lat="49.74676" lon="4.91925">
        <ele>252.48</ele>
        <time>2018-09-02T07:03:06Z</time>
      </trkpt>
      <trkpt lat="49.74685" lon="4.9194">
        <ele>252</ele>
        <time>2018-09-02T07:03:20Z</time>
      </trkpt>
      <trkpt lat="49.74697" lon="4.91966">
        <ele>253.44</ele>
        <time>2018-09-02T07:03:34Z</time>
      </trkpt>
      <trkpt lat="49.74699" lon="4.9197">
        <ele>253.93</ele>
        <time>2018-09-02T07:03:36Z</time>
      </trkpt>
      <trkpt lat="49.74705" lon="4.91977">
        <ele>254.41</ele>
        <time>2018-09-02T07:03:43Z</time>
      </trkpt>
      <trkpt lat="49.74717" lon="4.92001">
        <ele>253.44</ele>
        <time>2018-09-02T07:03:58Z</time>
      </trkpt>
      <trkpt lat="49.74728" lon="4.92025">
        <ele>250.08</ele>
        <time>2018-09-02T07:04:15Z</time>
      </trkpt>
      <trkpt lat="49.74743" lon="4.92056">
        <ele>248.16</ele>
        <time>2018-09-02T07:04:30Z</time>
      </trkpt>
      <trkpt lat="49.74752" lon="4.92075">
        <ele>248.64</ele>
        <time>2018-09-02T07:04:46Z</time>
      </trkpt>
      <trkpt lat="49.74767" lon="4.92114">
        <ele>249.6</ele>
        <time>2018-09-02T07:05:01Z</time>
      </trkpt>
      <trkpt lat="49.74777" lon="4.9213">
        <ele>251.52</ele>
        <time>2018-09-02T07:05:15Z</time>
      </trkpt>
      <trkpt lat="49.74793" lon="4.92162">
        <ele>254.89</ele>
        <time>2018-09-02T07:05:31Z</time>
      </trkpt>
      <trkpt lat="49.74804" lon="4.92178">
        <ele>253.93</ele>
        <time>2018-09-02T07:05:45Z</time>
      </trkpt>
      <trkpt lat="49.74816" lon="4.92199">
        <ele>256.33</ele>
        <time>2018-09-02T07:05:58Z</time>
      </trkpt>
      <trkpt lat="49.74829" lon="4.9222">
        <ele>256.33</ele>
        <time>2018-09-02T07:06:14Z</time>
      </trkpt>
      <trkpt lat="49.74844" lon="4.92244">
        <ele>254.89</ele>
        <time>2018-09-02T07:06:27Z</time>
      </trkpt>
      <trkpt lat="49.74854" lon="4.9226">
        <ele>253.93</ele>
        <time>2018-09-02T07:06:40Z</time>
      </trkpt>
      <trkpt lat="49.74861" lon="4.92275">
        <ele>253.93</ele>
        <time>2018-09-02T07:06:53Z</time>
      </trkpt>
      <trkpt lat="49.74873" lon="4.92297">
        <ele>254.89</ele>
        <time>2018-09-02T07:07:06Z</time>
      </trkpt>
      <trkpt lat="49.74886" lon="4.92321">
        <ele>255.85</ele>
        <time>2018-09-02T07:07:19Z</time>
      </trkpt>
      <trkpt lat="49.74897" lon="4.92337">
        <ele>256.33</ele>
        <time>2018-09-02T07:07:34Z</time>
      </trkpt>
      <trkpt lat="49.74908" lon="4.92355">
        <ele>257.77</ele>
        <time>2018-09-02T07:07:48Z</time>
      </trkpt>
      <trkpt lat="49.74927" lon="4.92378">
        <ele>259.21</ele>
        <time>2018-09-02T07:08:02Z</time>
      </trkpt>
      <trkpt lat="49.74942" lon="4.92394">
        <ele>259.69</ele>
        <time>2018-09-02T07:08:16Z</time>
      </trkpt>
      <trkpt lat="49.74955" lon="4.92409">
        <ele>258.25</ele>
        <time>2018-09-02T07:08:32Z</time>
      </trkpt>
      <trkpt lat="49.74969" lon="4.92421">
        <ele>258.25</ele>
        <time>2018-09-02T07:08:42Z</time>
      </trkpt>
      <trkpt lat="49.74987" lon="4.92435">
        <ele>256.81</ele>
        <time>2018-09-02T07:08:55Z</time>
      </trkpt>
      <trkpt lat="49.74993" lon="4.92441">
        <ele>255.37</ele>
        <time>2018-09-02T07:09:01Z</time>
      </trkpt>
      <trkpt lat="49.75008" lon="4.9245">
        <ele>256.81</ele>
        <time>2018-09-02T07:09:16Z</time>
      </trkpt>
      <trkpt lat="49.75023" lon="4.92463">
        <ele>260.65</ele>
        <time>2018-09-02T07:09:29Z</time>
      </trkpt>
      <trkpt lat="49.75039" lon="4.92475">
        <ele>259.21</ele>
        <time>2018-09-02T07:09:45Z</time>
      </trkpt>
      <trkpt lat="49.7505" lon="4.92479">
        <ele>258.25</ele>
        <time>2018-09-02T07:09:54Z</time>
      </trkpt>
      <trkpt lat="49.75064" lon="4.92481">
        <ele>252.48</ele>
        <time>2018-09-02T07:10:09Z</time>
      </trkpt>
      <trkpt lat="49.75086" lon="4.92478">
        <ele>253.93</ele>
        <time>2018-09-02T07:10:26Z</time>
      </trkpt>
      <trkpt lat="49.75091" lon="4.92475">
        <ele>254.89</ele>
        <time>2018-09-02T07:10:30Z</time>
      </trkpt>
      <trkpt lat="49.75108" lon="4.92453">
        <ele>255.85</ele>
        <time>2018-09-02T07:10:44Z</time>
      </trkpt>
      <trkpt lat="49.75113" lon="4.92449">
        <ele>255.85</ele>
        <time>2018-09-02T07:10:47Z</time>
      </trkpt>
      <trkpt lat="49.75116" lon="4.92442">
        <ele>255.37</ele>
        <time>2018-09-02T07:10:51Z</time>
      </trkpt>
      <trkpt lat="49.75128" lon="4.92423">
        <ele>250.08</ele>
        <time>2018-09-02T07:11:06Z</time>
      </trkpt>
      <trkpt lat="49.75142" lon="4.92419">
        <ele>251.04</ele>
        <time>2018-09-02T07:11:21Z</time>
      </trkpt>
      <trkpt lat="49.75147" lon="4.92415">
        <ele>250.56</ele>
        <time>2018-09-02T07:11:30Z</time>
      </trkpt>
      <trkpt lat="49.75156" lon="4.92415">
        <ele>249.12</ele>
        <time>2018-09-02T07:11:37Z</time>
      </trkpt>
      <trkpt lat="49.75162" lon="4.92415">
        <ele>250.08</ele>
        <time>2018-09-02T07:11:50Z</time>
      </trkpt>
      <trkpt lat="49.75162" lon="4.92415">
        <ele>250.08</ele>
        <time>2018-09-02T07:11:52Z</time>
      </trkpt>
      <trkpt lat="49.75174" lon="4.92412">
        <ele>251.04</ele>
        <time>2018-09-02T07:12:03Z</time>
      </trkpt>
      <trkpt lat="49.75183" lon="4.92408">
        <ele>251.52</ele>
        <time>2018-09-02T07:12:17Z</time>
      </trkpt>
      <trkpt lat="49.75185" lon="4.92408">
        <ele>251.04</ele>
        <time>2018-09-02T07:12:19Z</time>
      </trkpt>
      <trkpt lat="49.75192" lon="4.92404">
        <ele>251.52</ele>
        <time>2018-09-02T07:12:24Z</time>
      </trkpt>
      <trkpt lat="49.7521" lon="4.92394">
        <ele>252.48</ele>
        <time>2018-09-02T07:12:36Z</time>
      </trkpt>
      <trkpt lat="49.75218" lon="4.92387">
        <ele>254.41</ele>
        <time>2018-09-02T07:12:42Z</time>
      </trkpt>
      <trkpt lat="49.7523" lon="4.92378">
        <ele>255.85</ele>
        <time>2018-09-02T07:12:51Z</time>
      </trkpt>
      <trkpt lat="49.75252" lon="4.92371">
        <ele>258.25</ele>
        <time>2018-09-02T07:13:02Z</time>
      </trkpt>
      <trkpt lat="49.75264" lon="4.9236">
        <ele>256.33</ele>
        <time>2018-09-02T07:13:18Z</time>
      </trkpt>
      <trkpt lat="49.75275" lon="4.92358">
        <ele>258.73</ele>
        <time>2018-09-02T07:13:29Z</time>
      </trkpt>
      <trkpt lat="49.75284" lon="4.92356">
        <ele>260.65</ele>
        <time>2018-09-02T07:13:35Z</time>
      </trkpt>
      <trkpt lat="49.75289" lon="4.92358">
        <ele>261.62</ele>
        <time>2018-09-02T07:13:39Z</time>
      </trkpt>
      <trkpt lat="49.75294" lon="4.92354">
        <ele>261.62</ele>
        <time>2018-09-02T07:13:43Z</time>
      </trkpt>
      <trkpt lat="49.75307" lon="4.92354">
        <ele>263.06</ele>
        <time>2018-09-02T07:13:51Z</time>
      </trkpt>
      <trkpt lat="49.75321" lon="4.92359">
        <ele>263.54</ele>
        <time>2018-09-02T07:14:05Z</time>
      </trkpt>
      <trkpt lat="49.75334" lon="4.9236">
        <ele>262.58</ele>
        <time>2018-09-02T07:14:20Z</time>
      </trkpt>
      <trkpt lat="49.75348" lon="4.92358">
        <ele>263.06</ele>
        <time>2018-09-02T07:14:33Z</time>
      </trkpt>
      <trkpt lat="49.75351" lon="4.9236">
        <ele>263.06</ele>
        <time>2018-09-02T07:14:36Z</time>
      </trkpt>
      <trkpt lat="49.75362" lon="4.92365">
        <ele>264.02</ele>
        <time>2018-09-02T07:14:45Z</time>
      </trkpt>
      <trkpt lat="49.75381" lon="4.92371">
        <ele>265.94</ele>
        <time>2018-09-02T07:14:59Z</time>
      </trkpt>
      <trkpt lat="49.75383" lon="4.92371">
        <ele>265.94</ele>
        <time>2018-09-02T07:15:00Z</time>
      </trkpt>
      <trkpt lat="49.75401" lon="4.92375">
        <ele>270.75</ele>
        <time>2018-09-02T07:15:13Z</time>
      </trkpt>
      <trkpt lat="49.75402" lon="4.92376">
        <ele>271.23</ele>
        <time>2018-09-02T07:15:14Z</time>
      </trkpt>
      <trkpt lat="49.75419" lon="4.92387">
        <ele>275.56</ele>
        <time>2018-09-02T07:15:25Z</time>
      </trkpt>
      <trkpt lat="49.75431" lon="4.92383">
        <ele>278.92</ele>
        <time>2018-09-02T07:15:37Z</time>
      </trkpt>
      <trkpt lat="49.75439" lon="4.92382">
        <ele>278.44</ele>
        <time>2018-09-02T07:15:51Z</time>
      </trkpt>
      <trkpt lat="49.75442" lon="4.9238">
        <ele>279.4</ele>
        <time>2018-09-02T07:15:55Z</time>
      </trkpt>
      <trkpt lat="49.75456" lon="4.9238">
        <ele>278.92</ele>
        <time>2018-09-02T07:16:06Z</time>
      </trkpt>
      <trkpt lat="49.75478" lon="4.92386">
        <ele>279.88</ele>
        <time>2018-09-02T07:16:18Z</time>
      </trkpt>
      <trkpt lat="49.75481" lon="4.92387">
        <ele>281.32</ele>
        <time>2018-09-02T07:16:20Z</time>
      </trkpt>
      <trkpt lat="49.75491" lon="4.92386">
        <ele>282.28</ele>
        <time>2018-09-02T07:16:30Z</time>
      </trkpt>
      <trkpt lat="49.75496" lon="4.92387">
        <ele>282.28</ele>
        <time>2018-09-02T07:16:34Z</time>
      </trkpt>
      <trkpt lat="49.75506" lon="4.9239">
        <ele>280.36</ele>
        <time>2018-09-02T07:16:40Z</time>
      </trkpt>
      <trkpt lat="49.75523" lon="4.92393">
        <ele>281.32</ele>
        <time>2018-09-02T07:16:52Z</time>
      </trkpt>
      <trkpt lat="49.75533" lon="4.92394">
        <ele>283.73</ele>
        <time>2018-09-02T07:17:04Z</time>
      </trkpt>
      <trkpt lat="49.75542" lon="4.92397">
        <ele>285.17</ele>
        <time>2018-09-02T07:17:11Z</time>
      </trkpt>
      <trkpt lat="49.75564" lon="4.92399">
        <ele>287.57</ele>
        <time>2018-09-02T07:17:28Z</time>
      </trkpt>
      <trkpt lat="49.75572" lon="4.92401">
        <ele>285.65</ele>
        <time>2018-09-02T07:17:43Z</time>
      </trkpt>
      <trkpt lat="49.75581" lon="4.92403">
        <ele>286.61</ele>
        <time>2018-09-02T07:17:49Z</time>
      </trkpt>
      <trkpt lat="49.75587" lon="4.92404">
        <ele>287.57</ele>
        <time>2018-09-02T07:17:53Z</time>
      </trkpt>
      <trkpt lat="49.75602" lon="4.92405">
        <ele>287.57</ele>
        <time>2018-09-02T07:18:07Z</time>
      </trkpt>
      <trkpt lat="49.75611" lon="4.92406">
        <ele>289.01</ele>
        <time>2018-09-02T07:18:13Z</time>
      </trkpt>
      <trkpt lat="49.75623" lon="4.9241">
        <ele>289.01</ele>
        <time>2018-09-02T07:18:19Z</time>
      </trkpt>
      <trkpt lat="49.75639" lon="4.92414">
        <ele>292.86</ele>
        <time>2018-09-02T07:18:31Z</time>
      </trkpt>
      <trkpt lat="49.75642" lon="4.92413">
        <ele>293.34</ele>
        <time>2018-09-02T07:18:36Z</time>
      </trkpt>
      <trkpt lat="49.75644" lon="4.92414">
        <ele>293.82</ele>
        <time>2018-09-02T07:18:38Z</time>
      </trkpt>
      <trkpt lat="49.75646" lon="4.92416">
        <ele>294.78</ele>
        <time>2018-09-02T07:18:40Z</time>
      </trkpt>
      <trkpt lat="49.75657" lon="4.9242">
        <ele>297.67</ele>
        <time>2018-09-02T07:18:47Z</time>
      </trkpt>
      <trkpt lat="49.75659" lon="4.92422">
        <ele>298.63</ele>
        <time>2018-09-02T07:18:49Z</time>
      </trkpt>
      <trkpt lat="49.75663" lon="4.92426">
        <ele>300.07</ele>
        <time>2018-09-02T07:18:52Z</time>
      </trkpt>
      <trkpt lat="49.75678" lon="4.9243">
        <ele>302.95</ele>
        <time>2018-09-02T07:19:05Z</time>
      </trkpt>
      <trkpt lat="49.75682" lon="4.92433">
        <ele>302.47</ele>
        <time>2018-09-02T07:19:13Z</time>
      </trkpt>
      <trkpt lat="49.75699" lon="4.9244">
        <ele>309.2</ele>
        <time>2018-09-02T07:19:26Z</time>
      </trkpt>
      <trkpt lat="49.75711" lon="4.92446">
        <ele>309.2</ele>
        <time>2018-09-02T07:19:38Z</time>
      </trkpt>
      <trkpt lat="49.75719" lon="4.92451">
        <ele>309.68</ele>
        <time>2018-09-02T07:19:45Z</time>
      </trkpt>
      <trkpt lat="49.75732" lon="4.92463">
        <ele>311.12</ele>
        <time>2018-09-02T07:19:56Z</time>
      </trkpt>
      <trkpt lat="49.75734" lon="4.92463">
        <ele>310.64</ele>
        <time>2018-09-02T07:20:03Z</time>
      </trkpt>
      <trkpt lat="49.75737" lon="4.92465">
        <ele>311.6</ele>
        <time>2018-09-02T07:20:06Z</time>
      </trkpt>
      <trkpt lat="49.75758" lon="4.92481">
        <ele>320.26</ele>
        <time>2018-09-02T07:20:22Z</time>
      </trkpt>
      <trkpt lat="49.75765" lon="4.9249">
        <ele>314.49</ele>
        <time>2018-09-02T07:20:37Z</time>
      </trkpt>
      <trkpt lat="49.75768" lon="4.92491">
        <ele>313.05</ele>
        <time>2018-09-02T07:20:41Z</time>
      </trkpt>
      <trkpt lat="49.75783" lon="4.92494">
        <ele>308.24</ele>
        <time>2018-09-02T07:20:51Z</time>
      </trkpt>
      <trkpt lat="49.75804" lon="4.92497">
        <ele>298.15</ele>
        <time>2018-09-02T07:21:04Z</time>
      </trkpt>
      <trkpt lat="49.75817" lon="4.92496">
        <ele>295.26</ele>
        <time>2018-09-02T07:21:18Z</time>
      </trkpt>
      <trkpt lat="49.75835" lon="4.92497">
        <ele>291.42</ele>
        <time>2018-09-02T07:21:29Z</time>
      </trkpt>
      <trkpt lat="49.75854" lon="4.92492">
        <ele>289.49</ele>
        <time>2018-09-02T07:21:44Z</time>
      </trkpt>
      <trkpt lat="49.75874" lon="4.92483">
        <ele>294.78</ele>
        <time>2018-09-02T07:21:57Z</time>
      </trkpt>
      <trkpt lat="49.75892" lon="4.9248">
        <ele>297.67</ele>
        <time>2018-09-02T07:22:12Z</time>
      </trkpt>
      <trkpt lat="49.75898" lon="4.92479">
        <ele>298.15</ele>
        <time>2018-09-02T07:22:17Z</time>
      </trkpt>
      <trkpt lat="49.75917" lon="4.92473">
        <ele>300.07</ele>
        <time>2018-09-02T07:22:31Z</time>
      </trkpt>
      <trkpt lat="49.75929" lon="4.92471">
        <ele>300.07</ele>
        <time>2018-09-02T07:22:44Z</time>
      </trkpt>
      <trkpt lat="49.75946" lon="4.92463">
        <ele>299.11</ele>
        <time>2018-09-02T07:22:57Z</time>
      </trkpt>
      <trkpt lat="49.75967" lon="4.9246">
        <ele>298.63</ele>
        <time>2018-09-02T07:23:11Z</time>
      </trkpt>
      <trkpt lat="49.75978" lon="4.92455">
        <ele>297.18</ele>
        <time>2018-09-02T07:23:25Z</time>
      </trkpt>
      <trkpt lat="49.75995" lon="4.92447">
        <ele>299.11</ele>
        <time>2018-09-02T07:23:37Z</time>
      </trkpt>
      <trkpt lat="49.76009" lon="4.92442">
        <ele>300.07</ele>
        <time>2018-09-02T07:23:49Z</time>
      </trkpt>
      <trkpt lat="49.76012" lon="4.92442">
        <ele>299.59</ele>
        <time>2018-09-02T07:23:51Z</time>
      </trkpt>
      <trkpt lat="49.76027" lon="4.92439">
        <ele>297.67</ele>
        <time>2018-09-02T07:24:06Z</time>
      </trkpt>
      <trkpt lat="49.76032" lon="4.92437">
        <ele>297.18</ele>
        <time>2018-09-02T07:24:10Z</time>
      </trkpt>
      <trkpt lat="49.76037" lon="4.92437">
        <ele>297.18</ele>
        <time>2018-09-02T07:24:13Z</time>
      </trkpt>
      <trkpt lat="49.76053" lon="4.92438">
        <ele>300.55</ele>
        <time>2018-09-02T07:24:29Z</time>
      </trkpt>
      <trkpt lat="49.76059" lon="4.92442">
        <ele>301.99</ele>
        <time>2018-09-02T07:24:34Z</time>
      </trkpt>
      <trkpt lat="49.76075" lon="4.92438">
        <ele>302.95</ele>
        <time>2018-09-02T07:24:46Z</time>
      </trkpt>
      <trkpt lat="49.76086" lon="4.92441">
        <ele>301.99</ele>
        <time>2018-09-02T07:24:54Z</time>
      </trkpt>
      <trkpt lat="49.76104" lon="4.92444">
        <ele>303.43</ele>
        <time>2018-09-02T07:25:10Z</time>
      </trkpt>
      <trkpt lat="49.76116" lon="4.92444">
        <ele>304.88</ele>
        <time>2018-09-02T07:25:20Z</time>
      </trkpt>
      <trkpt lat="49.76134" lon="4.92451">
        <ele>308.24</ele>
        <time>2018-09-02T07:25:34Z</time>
      </trkpt>
      <trkpt lat="49.7615" lon="4.92453">
        <ele>309.68</ele>
        <time>2018-09-02T07:25:46Z</time>
      </trkpt>
      <trkpt lat="49.76154" lon="4.92451">
        <ele>310.64</ele>
        <time>2018-09-02T07:25:50Z</time>
      </trkpt>
      <trkpt lat="49.76176" lon="4.92463">
        <ele>313.05</ele>
        <time>2018-09-02T07:26:06Z</time>
      </trkpt>
      <trkpt lat="49.76177" lon="4.92471">
        <ele>315.93</ele>
        <time>2018-09-02T07:26:14Z</time>
      </trkpt>
      <trkpt lat="49.76185" lon="4.92498">
        <ele>316.41</ele>
        <time>2018-09-02T07:26:29Z</time>
      </trkpt>
      <trkpt lat="49.7619" lon="4.92518">
        <ele>317.37</ele>
        <time>2018-09-02T07:26:43Z</time>
      </trkpt>
      <trkpt lat="49.7619" lon="4.92526">
        <ele>319.3</ele>
        <time>2018-09-02T07:26:50Z</time>
      </trkpt>
      <trkpt lat="49.76187" lon="4.92536">
        <ele>320.74</ele>
        <time>2018-09-02T07:26:56Z</time>
      </trkpt>
      <trkpt lat="49.76188" lon="4.92542">
        <ele>322.18</ele>
        <time>2018-09-02T07:26:59Z</time>
      </trkpt>
      <trkpt lat="49.76189" lon="4.92559">
        <ele>324.58</ele>
        <time>2018-09-02T07:27:05Z</time>
      </trkpt>
      <trkpt lat="49.76191" lon="4.9257">
        <ele>324.1</ele>
        <time>2018-09-02T07:27:09Z</time>
      </trkpt>
      <trkpt lat="49.762" lon="4.9261">
        <ele>322.18</ele>
        <time>2018-09-02T07:27:25Z</time>
      </trkpt>
      <trkpt lat="49.76202" lon="4.92634">
        <ele>320.26</ele>
        <time>2018-09-02T07:27:41Z</time>
      </trkpt>
      <trkpt lat="49.76203" lon="4.92643">
        <ele>320.74</ele>
        <time>2018-09-02T07:27:53Z</time>
      </trkpt>
      <trkpt lat="49.76204" lon="4.92652">
        <ele>320.74</ele>
        <time>2018-09-02T07:28:03Z</time>
      </trkpt>
      <trkpt lat="49.76203" lon="4.92657">
        <ele>322.18</ele>
        <time>2018-09-02T07:28:16Z</time>
      </trkpt>
      <trkpt lat="49.76205" lon="4.92677">
        <ele>322.66</ele>
        <time>2018-09-02T07:28:31Z</time>
      </trkpt>
      <trkpt lat="49.76206" lon="4.92693">
        <ele>323.62</ele>
        <time>2018-09-02T07:28:38Z</time>
      </trkpt>
      <trkpt lat="49.76206" lon="4.92699">
        <ele>323.62</ele>
        <time>2018-09-02T07:28:41Z</time>
      </trkpt>
      <trkpt lat="49.76213" lon="4.92735">
        <ele>323.14</ele>
        <time>2018-09-02T07:28:54Z</time>
      </trkpt>
      <trkpt lat="49.76223" lon="4.92777">
        <ele>321.22</ele>
        <time>2018-09-02T07:29:10Z</time>
      </trkpt>
      <trkpt lat="49.76223" lon="4.92791">
        <ele>320.74</ele>
        <time>2018-09-02T07:29:14Z</time>
      </trkpt>
      <trkpt lat="49.76223" lon="4.92801">
        <ele>320.26</ele>
        <time>2018-09-02T07:29:24Z</time>
      </trkpt>
      <trkpt lat="49.76226" lon="4.92808">
        <ele>319.3</ele>
        <time>2018-09-02T07:29:38Z</time>
      </trkpt>
      <trkpt lat="49.76226" lon="4.92811">
        <ele>318.33</ele>
        <time>2018-09-02T07:29:52Z</time>
      </trkpt>
      <trkpt lat="49.7623" lon="4.92819">
        <ele>318.33</ele>
        <time>2018-09-02T07:29:58Z</time>
      </trkpt>
      <trkpt lat="49.76249" lon="4.92852">
        <ele>316.41</ele>
        <time>2018-09-02T07:30:12Z</time>
      </trkpt>
      <trkpt lat="49.76253" lon="4.9287">
        <ele>316.41</ele>
        <time>2018-09-02T07:30:18Z</time>
      </trkpt>
      <trkpt lat="49.76257" lon="4.92881">
        <ele>316.89</ele>
        <time>2018-09-02T07:30:23Z</time>
      </trkpt>
      <trkpt lat="49.76266" lon="4.92897">
        <ele>315.93</ele>
        <time>2018-09-02T07:30:41Z</time>
      </trkpt>
      <trkpt lat="49.76267" lon="4.92898">
        <ele>315.93</ele>
        <time>2018-09-02T07:30:42Z</time>
      </trkpt>
      <trkpt lat="49.76272" lon="4.92905">
        <ele>315.93</ele>
        <time>2018-09-02T07:30:47Z</time>
      </trkpt>
      <trkpt lat="49.76285" lon="4.92921">
        <ele>318.81</ele>
        <time>2018-09-02T07:30:58Z</time>
      </trkpt>
      <trkpt lat="49.76297" lon="4.92929">
        <ele>321.22</ele>
        <time>2018-09-02T07:31:12Z</time>
      </trkpt>
      <trkpt lat="49.763" lon="4.9293">
        <ele>320.74</ele>
        <time>2018-09-02T07:31:15Z</time>
      </trkpt>
      <trkpt lat="49.76314" lon="4.92942">
        <ele>325.54</ele>
        <time>2018-09-02T07:31:26Z</time>
      </trkpt>
      <trkpt lat="49.76324" lon="4.92947">
        <ele>338.52</ele>
        <time>2018-09-02T07:31:41Z</time>
      </trkpt>
      <trkpt lat="49.76326" lon="4.92947">
        <ele>339.48</ele>
        <time>2018-09-02T07:31:44Z</time>
      </trkpt>
      <trkpt lat="49.76331" lon="4.92948">
        <ele>339</ele>
        <time>2018-09-02T07:31:49Z</time>
      </trkpt>
      <trkpt lat="49.76333" lon="4.9295">
        <ele>339</ele>
        <time>2018-09-02T07:31:51Z</time>
      </trkpt>
      <trkpt lat="49.7634" lon="4.92951">
        <ele>339</ele>
        <time>2018-09-02T07:31:57Z</time>
      </trkpt>
      <trkpt lat="49.76347" lon="4.92946">
        <ele>339</ele>
        <time>2018-09-02T07:32:03Z</time>
      </trkpt>
      <trkpt lat="49.76357" lon="4.92954">
        <ele>339.48</ele>
        <time>2018-09-02T07:32:09Z</time>
      </trkpt>
      <trkpt lat="49.76375" lon="4.92962">
        <ele>341.41</ele>
        <time>2018-09-02T07:32:24Z</time>
      </trkpt>
      <trkpt lat="49.76385" lon="4.92968">
        <ele>342.37</ele>
        <time>2018-09-02T07:32:35Z</time>
      </trkpt>
      <trkpt lat="49.764" lon="4.92982">
        <ele>341.89</ele>
        <time>2018-09-02T07:32:47Z</time>
      </trkpt>
      <trkpt lat="49.76406" lon="4.92985">
        <ele>339.48</ele>
        <time>2018-09-02T07:33:00Z</time>
      </trkpt>
      <trkpt lat="49.7641" lon="4.92988">
        <ele>338.52</ele>
        <time>2018-09-02T07:33:03Z</time>
      </trkpt>
      <trkpt lat="49.76415" lon="4.9299">
        <ele>338.52</ele>
        <time>2018-09-02T07:33:07Z</time>
      </trkpt>
      <trkpt lat="49.76431" lon="4.92994">
        <ele>341.41</ele>
        <time>2018-09-02T07:33:20Z</time>
      </trkpt>
      <trkpt lat="49.76439" lon="4.92999">
        <ele>341.41</ele>
        <time>2018-09-02T07:33:29Z</time>
      </trkpt>
      <trkpt lat="49.76452" lon="4.93006">
        <ele>342.85</ele>
        <time>2018-09-02T07:33:41Z</time>
      </trkpt>
      <trkpt lat="49.76459" lon="4.93003">
        <ele>343.81</ele>
        <time>2018-09-02T07:33:53Z</time>
      </trkpt>
      <trkpt lat="49.76464" lon="4.93007">
        <ele>344.29</ele>
        <time>2018-09-02T07:33:58Z</time>
      </trkpt>
      <trkpt lat="49.7648" lon="4.93037">
        <ele>345.25</ele>
        <time>2018-09-02T07:34:11Z</time>
      </trkpt>
      <trkpt lat="49.76493" lon="4.93063">
        <ele>343.33</ele>
        <time>2018-09-02T07:34:23Z</time>
      </trkpt>
      <trkpt lat="49.76503" lon="4.9308">
        <ele>343.33</ele>
        <time>2018-09-02T07:34:31Z</time>
      </trkpt>
      <trkpt lat="49.76516" lon="4.93091">
        <ele>346.69</ele>
        <time>2018-09-02T07:34:42Z</time>
      </trkpt>
      <trkpt lat="49.7652" lon="4.93094">
        <ele>348.13</ele>
        <time>2018-09-02T07:34:46Z</time>
      </trkpt>
      <trkpt lat="49.76527" lon="4.93102">
        <ele>347.65</ele>
        <time>2018-09-02T07:34:55Z</time>
      </trkpt>
      <trkpt lat="49.7654" lon="4.93111">
        <ele>345.25</ele>
        <time>2018-09-02T07:35:08Z</time>
      </trkpt>
      <trkpt lat="49.76554" lon="4.93121">
        <ele>344.77</ele>
        <time>2018-09-02T07:35:24Z</time>
      </trkpt>
      <trkpt lat="49.76555" lon="4.93121">
        <ele>344.77</ele>
        <time>2018-09-02T07:35:28Z</time>
      </trkpt>
      <trkpt lat="49.76562" lon="4.93127">
        <ele>344.77</ele>
        <time>2018-09-02T07:35:32Z</time>
      </trkpt>
      <trkpt lat="49.76567" lon="4.9313">
        <ele>344.29</ele>
        <time>2018-09-02T07:35:36Z</time>
      </trkpt>
      <trkpt lat="49.76584" lon="4.93145">
        <ele>344.77</ele>
        <time>2018-09-02T07:35:49Z</time>
      </trkpt>
      <trkpt lat="49.76593" lon="4.93158">
        <ele>343.81</ele>
        <time>2018-09-02T07:36:01Z</time>
      </trkpt>
      <trkpt lat="49.7661" lon="4.93163">
        <ele>344.77</ele>
        <time>2018-09-02T07:36:11Z</time>
      </trkpt>
      <trkpt lat="49.76611" lon="4.93168">
        <ele>344.77</ele>
        <time>2018-09-02T07:36:13Z</time>
      </trkpt>
      <trkpt lat="49.76615" lon="4.93174">
        <ele>345.25</ele>
        <time>2018-09-02T07:36:16Z</time>
      </trkpt>
      <trkpt lat="49.76625" lon="4.93181">
        <ele>345.25</ele>
        <time>2018-09-02T07:36:26Z</time>
      </trkpt>
      <trkpt lat="49.76634" lon="4.93191">
        <ele>345.73</ele>
        <time>2018-09-02T07:36:32Z</time>
      </trkpt>
      <trkpt lat="49.76648" lon="4.932">
        <ele>346.69</ele>
        <time>2018-09-02T07:36:44Z</time>
      </trkpt>
      <trkpt lat="49.76657" lon="4.93205">
        <ele>346.69</ele>
        <time>2018-09-02T07:36:57Z</time>
      </trkpt>
      <trkpt lat="49.76665" lon="4.93209">
        <ele>344.77</ele>
        <time>2018-09-02T07:37:14Z</time>
      </trkpt>
      <trkpt lat="49.76684" lon="4.93213">
        <ele>345.25</ele>
        <time>2018-09-02T07:37:27Z</time>
      </trkpt>
      <trkpt lat="49.76687" lon="4.93214">
        <ele>345.25</ele>
        <time>2018-09-02T07:37:30Z</time>
      </trkpt>
      <trkpt lat="49.76691" lon="4.93214">
        <ele>344.77</ele>
        <time>2018-09-02T07:37:32Z</time>
      </trkpt>
      <trkpt lat="49.76698" lon="4.93216">
        <ele>345.25</ele>
        <time>2018-09-02T07:37:37Z</time>
      </trkpt>
      <trkpt lat="49.76712" lon="4.9322">
        <ele>345.25</ele>
        <time>2018-09-02T07:37:44Z</time>
      </trkpt>
      <trkpt lat="49.76719" lon="4.93223">
        <ele>344.77</ele>
        <time>2018-09-02T07:37:48Z</time>
      </trkpt>
      <trkpt lat="49.76736" lon="4.93226">
        <ele>345.25</ele>
        <time>2018-09-02T07:38:03Z</time>
      </trkpt>
      <trkpt lat="49.7675" lon="4.93234">
        <ele>343.81</ele>
        <time>2018-09-02T07:38:17Z</time>
      </trkpt>
      <trkpt lat="49.76771" lon="4.93238">
        <ele>345.25</ele>
        <time>2018-09-02T07:38:31Z</time>
      </trkpt>
      <trkpt lat="49.76779" lon="4.93242">
        <ele>346.69</ele>
        <time>2018-09-02T07:38:38Z</time>
      </trkpt>
      <trkpt lat="49.76792" lon="4.9326">
        <ele>351.02</ele>
        <time>2018-09-02T07:38:53Z</time>
      </trkpt>
      <trkpt lat="49.76793" lon="4.93261">
        <ele>351.02</ele>
        <time>2018-09-02T07:38:54Z</time>
      </trkpt>
      <trkpt lat="49.76802" lon="4.93275">
        <ele>351.98</ele>
        <time>2018-09-02T07:39:08Z</time>
      </trkpt>
      <trkpt lat="49.76804" lon="4.93276">
        <ele>352.46</ele>
        <time>2018-09-02T07:39:10Z</time>
      </trkpt>
      <trkpt lat="49.76821" lon="4.93275">
        <ele>353.9</ele>
        <time>2018-09-02T07:39:23Z</time>
      </trkpt>
      <trkpt lat="49.76835" lon="4.93266">
        <ele>350.06</ele>
        <time>2018-09-02T07:39:38Z</time>
      </trkpt>
      <trkpt lat="49.7685" lon="4.93258">
        <ele>347.65</ele>
        <time>2018-09-02T07:39:52Z</time>
      </trkpt>
      <trkpt lat="49.76861" lon="4.93249">
        <ele>349.58</ele>
        <time>2018-09-02T07:40:03Z</time>
      </trkpt>
      <trkpt lat="49.76861" lon="4.93249">
        <ele>349.58</ele>
        <time>2018-09-02T07:40:04Z</time>
      </trkpt>
      <trkpt lat="49.76872" lon="4.93243">
        <ele>349.58</ele>
        <time>2018-09-02T07:40:16Z</time>
      </trkpt>
      <trkpt lat="49.76882" lon="4.93236">
        <ele>349.58</ele>
        <time>2018-09-02T07:40:27Z</time>
      </trkpt>
      <trkpt lat="49.76896" lon="4.93227">
        <ele>350.06</ele>
        <time>2018-09-02T07:40:39Z</time>
      </trkpt>
      <trkpt lat="49.76904" lon="4.93223">
        <ele>351.5</ele>
        <time>2018-09-02T07:40:48Z</time>
      </trkpt>
      <trkpt lat="49.7692" lon="4.93212">
        <ele>354.86</ele>
        <time>2018-09-02T07:41:01Z</time>
      </trkpt>
      <trkpt lat="49.76934" lon="4.93204">
        <ele>356.31</ele>
        <time>2018-09-02T07:41:13Z</time>
      </trkpt>
      <trkpt lat="49.7694" lon="4.93201">
        <ele>355.83</ele>
        <time>2018-09-02T07:41:21Z</time>
      </trkpt>
      <trkpt lat="49.76954" lon="4.9319">
        <ele>351.98</ele>
        <time>2018-09-02T07:41:35Z</time>
      </trkpt>
      <trkpt lat="49.76968" lon="4.93179">
        <ele>350.06</ele>
        <time>2018-09-02T07:41:48Z</time>
      </trkpt>
      <trkpt lat="49.7697" lon="4.9318">
        <ele>349.58</ele>
        <time>2018-09-02T07:41:53Z</time>
      </trkpt>
      <trkpt lat="49.76983" lon="4.93177">
        <ele>351.98</ele>
        <time>2018-09-02T07:42:06Z</time>
      </trkpt>
      <trkpt lat="49.76987" lon="4.93176">
        <ele>352.46</ele>
        <time>2018-09-02T07:42:09Z</time>
      </trkpt>
      <trkpt lat="49.77003" lon="4.93167">
        <ele>354.86</ele>
        <time>2018-09-02T07:42:23Z</time>
      </trkpt>
      <trkpt lat="49.77015" lon="4.93159">
        <ele>356.31</ele>
        <time>2018-09-02T07:42:37Z</time>
      </trkpt>
      <trkpt lat="49.77034" lon="4.93152">
        <ele>359.19</ele>
        <time>2018-09-02T07:42:49Z</time>
      </trkpt>
      <trkpt lat="49.77051" lon="4.93138">
        <ele>362.07</ele>
        <time>2018-09-02T07:43:03Z</time>
      </trkpt>
      <trkpt lat="49.77066" lon="4.93128">
        <ele>366.4</ele>
        <time>2018-09-02T07:43:14Z</time>
      </trkpt>
      <trkpt lat="49.77079" lon="4.93121">
        <ele>367.84</ele>
        <time>2018-09-02T07:43:26Z</time>
      </trkpt>
      <trkpt lat="49.77096" lon="4.93109">
        <ele>368.8</ele>
        <time>2018-09-02T07:43:39Z</time>
      </trkpt>
      <trkpt lat="49.77103" lon="4.93107">
        <ele>369.28</ele>
        <time>2018-09-02T07:43:49Z</time>
      </trkpt>
      <trkpt lat="49.77108" lon="4.93108">
        <ele>369.76</ele>
        <time>2018-09-02T07:43:52Z</time>
      </trkpt>
      <trkpt lat="49.77127" lon="4.93098">
        <ele>370.24</ele>
        <time>2018-09-02T07:44:06Z</time>
      </trkpt>
      <trkpt lat="49.77141" lon="4.93095">
        <ele>370.73</ele>
        <time>2018-09-02T07:44:15Z</time>
      </trkpt>
      <trkpt lat="49.77154" lon="4.93094">
        <ele>371.21</ele>
        <time>2018-09-02T07:44:30Z</time>
      </trkpt>
      <trkpt lat="49.77159" lon="4.93093">
        <ele>370.73</ele>
        <time>2018-09-02T07:44:35Z</time>
      </trkpt>
      <trkpt lat="49.77173" lon="4.93091">
        <ele>371.21</ele>
        <time>2018-09-02T07:44:46Z</time>
      </trkpt>
      <trkpt lat="49.77194" lon="4.93085">
        <ele>374.09</ele>
        <time>2018-09-02T07:45:00Z</time>
      </trkpt>
      <trkpt lat="49.77207" lon="4.93084">
        <ele>375.05</ele>
        <time>2018-09-02T07:45:15Z</time>
      </trkpt>
      <trkpt lat="49.77214" lon="4.93083">
        <ele>375.05</ele>
        <time>2018-09-02T07:45:28Z</time>
      </trkpt>
      <trkpt lat="49.77226" lon="4.93083">
        <ele>374.57</ele>
        <time>2018-09-02T07:45:43Z</time>
      </trkpt>
      <trkpt lat="49.77241" lon="4.93082">
        <ele>375.53</ele>
        <time>2018-09-02T07:45:55Z</time>
      </trkpt>
      <trkpt lat="49.7726" lon="4.9308">
        <ele>378.9</ele>
        <time>2018-09-02T07:46:07Z</time>
      </trkpt>
      <trkpt lat="49.77275" lon="4.93077">
        <ele>379.86</ele>
        <time>2018-09-02T07:46:20Z</time>
      </trkpt>
      <trkpt lat="49.77275" lon="4.93077">
        <ele>379.86</ele>
        <time>2018-09-02T07:46:21Z</time>
      </trkpt>
      <trkpt lat="49.77292" lon="4.93076">
        <ele>381.3</ele>
        <time>2018-09-02T07:46:34Z</time>
      </trkpt>
      <trkpt lat="49.77301" lon="4.93077">
        <ele>381.3</ele>
        <time>2018-09-02T07:46:40Z</time>
      </trkpt>
      <trkpt lat="49.77322" lon="4.93077">
        <ele>382.74</ele>
        <time>2018-09-02T07:46:53Z</time>
      </trkpt>
      <trkpt lat="49.77341" lon="4.93076">
        <ele>384.18</ele>
        <time>2018-09-02T07:47:06Z</time>
      </trkpt>
      <trkpt lat="49.77363" lon="4.93074">
        <ele>384.66</ele>
        <time>2018-09-02T07:47:19Z</time>
      </trkpt>
      <trkpt lat="49.77379" lon="4.93068">
        <ele>385.63</ele>
        <time>2018-09-02T07:47:33Z</time>
      </trkpt>
      <trkpt lat="49.77393" lon="4.93065">
        <ele>386.11</ele>
        <time>2018-09-02T07:47:45Z</time>
      </trkpt>
      <trkpt lat="49.77408" lon="4.9306">
        <ele>387.55</ele>
        <time>2018-09-02T07:47:57Z</time>
      </trkpt>
      <trkpt lat="49.77425" lon="4.93061">
        <ele>386.59</ele>
        <time>2018-09-02T07:48:13Z</time>
      </trkpt>
      <trkpt lat="49.77427" lon="4.93062">
        <ele>386.59</ele>
        <time>2018-09-02T07:48:15Z</time>
      </trkpt>
      <trkpt lat="49.77438" lon="4.93063">
        <ele>385.15</ele>
        <time>2018-09-02T07:48:23Z</time>
      </trkpt>
      <trkpt lat="49.77454" lon="4.93065">
        <ele>380.82</ele>
        <time>2018-09-02T07:48:36Z</time>
      </trkpt>
      <trkpt lat="49.77466" lon="4.93063">
        <ele>382.74</ele>
        <time>2018-09-02T07:48:50Z</time>
      </trkpt>
      <trkpt lat="49.77479" lon="4.93053">
        <ele>384.18</ele>
        <time>2018-09-02T07:49:04Z</time>
      </trkpt>
      <trkpt lat="49.77481" lon="4.93052">
        <ele>384.66</ele>
        <time>2018-09-02T07:49:06Z</time>
      </trkpt>
      <trkpt lat="49.77487" lon="4.93051">
        <ele>386.59</ele>
        <time>2018-09-02T07:49:11Z</time>
      </trkpt>
      <trkpt lat="49.7749" lon="4.93052">
        <ele>387.07</ele>
        <time>2018-09-02T07:49:13Z</time>
      </trkpt>
      <trkpt lat="49.77506" lon="4.93046">
        <ele>390.91</ele>
        <time>2018-09-02T07:49:26Z</time>
      </trkpt>
      <trkpt lat="49.77511" lon="4.9305">
        <ele>391.39</ele>
        <time>2018-09-02T07:49:40Z</time>
      </trkpt>
      <trkpt lat="49.77526" lon="4.93047">
        <ele>393.32</ele>
        <time>2018-09-02T07:49:52Z</time>
      </trkpt>
      <trkpt lat="49.77539" lon="4.93044">
        <ele>393.32</ele>
        <time>2018-09-02T07:50:03Z</time>
      </trkpt>
      <trkpt lat="49.77543" lon="4.93046">
        <ele>393.8</ele>
        <time>2018-09-02T07:50:14Z</time>
      </trkpt>
      <trkpt lat="49.77548" lon="4.93046">
        <ele>394.28</ele>
        <time>2018-09-02T07:50:22Z</time>
      </trkpt>
      <trkpt lat="49.77564" lon="4.93051">
        <ele>396.68</ele>
        <time>2018-09-02T07:50:33Z</time>
      </trkpt>
      <trkpt lat="49.77573" lon="4.93048">
        <ele>398.6</ele>
        <time>2018-09-02T07:50:43Z</time>
      </trkpt>
      <trkpt lat="49.77583" lon="4.93045">
        <ele>401.01</ele>
        <time>2018-09-02T07:50:47Z</time>
      </trkpt>
      <trkpt lat="49.77601" lon="4.93042">
        <ele>403.41</ele>
        <time>2018-09-02T07:51:01Z</time>
      </trkpt>
      <trkpt lat="49.77618" lon="4.93041">
        <ele>404.85</ele>
        <time>2018-09-02T07:51:14Z</time>
      </trkpt>
      <trkpt lat="49.77639" lon="4.93035">
        <ele>404.85</ele>
        <time>2018-09-02T07:51:29Z</time>
      </trkpt>
      <trkpt lat="49.77647" lon="4.93036">
        <ele>405.33</ele>
        <time>2018-09-02T07:51:34Z</time>
      </trkpt>
      <trkpt lat="49.77669" lon="4.93035">
        <ele>406.77</ele>
        <time>2018-09-02T07:51:50Z</time>
      </trkpt>
      <trkpt lat="49.77688" lon="4.93037">
        <ele>407.26</ele>
        <time>2018-09-02T07:52:03Z</time>
      </trkpt>
      <trkpt lat="49.77708" lon="4.93041">
        <ele>407.74</ele>
        <time>2018-09-02T07:52:17Z</time>
      </trkpt>
      <trkpt lat="49.77722" lon="4.9304">
        <ele>407.74</ele>
        <time>2018-09-02T07:52:30Z</time>
      </trkpt>
      <trkpt lat="49.77737" lon="4.93039">
        <ele>407.74</ele>
        <time>2018-09-02T07:52:41Z</time>
      </trkpt>
      <trkpt lat="49.77752" lon="4.93043">
        <ele>409.18</ele>
        <time>2018-09-02T07:52:52Z</time>
      </trkpt>
      <trkpt lat="49.77763" lon="4.93043">
        <ele>409.18</ele>
        <time>2018-09-02T07:53:09Z</time>
      </trkpt>
      <trkpt lat="49.77772" lon="4.93042">
        <ele>408.7</ele>
        <time>2018-09-02T07:53:26Z</time>
      </trkpt>
      <trkpt lat="49.77776" lon="4.93042">
        <ele>408.7</ele>
        <time>2018-09-02T07:53:29Z</time>
      </trkpt>
      <trkpt lat="49.77804" lon="4.93048">
        <ele>409.18</ele>
        <time>2018-09-02T07:53:46Z</time>
      </trkpt>
      <trkpt lat="49.77824" lon="4.93048">
        <ele>410.62</ele>
        <time>2018-09-02T07:53:58Z</time>
      </trkpt>
      <trkpt lat="49.77839" lon="4.93052">
        <ele>410.62</ele>
        <time>2018-09-02T07:54:10Z</time>
      </trkpt>
      <trkpt lat="49.77854" lon="4.93051">
        <ele>411.58</ele>
        <time>2018-09-02T07:54:24Z</time>
      </trkpt>
      <trkpt lat="49.77862" lon="4.93059">
        <ele>410.62</ele>
        <time>2018-09-02T07:54:30Z</time>
      </trkpt>
      <trkpt lat="49.77876" lon="4.93064">
        <ele>410.62</ele>
        <time>2018-09-02T07:54:44Z</time>
      </trkpt>
      <trkpt lat="49.77886" lon="4.93065">
        <ele>410.62</ele>
        <time>2018-09-02T07:55:00Z</time>
      </trkpt>
      <trkpt lat="49.77896" lon="4.93063">
        <ele>411.1</ele>
        <time>2018-09-02T07:55:16Z</time>
      </trkpt>
      <trkpt lat="49.77912" lon="4.93064">
        <ele>410.62</ele>
        <time>2018-09-02T07:55:29Z</time>
      </trkpt>
      <trkpt lat="49.77941" lon="4.93056">
        <ele>411.1</ele>
        <time>2018-09-02T07:55:43Z</time>
      </trkpt>
      <trkpt lat="49.77956" lon="4.93053">
        <ele>411.1</ele>
        <time>2018-09-02T07:55:51Z</time>
      </trkpt>
      <trkpt lat="49.77965" lon="4.9305">
        <ele>411.1</ele>
        <time>2018-09-02T07:55:59Z</time>
      </trkpt>
      <trkpt lat="49.77975" lon="4.93049">
        <ele>411.1</ele>
        <time>2018-09-02T07:56:15Z</time>
      </trkpt>
      <trkpt lat="49.77984" lon="4.93052">
        <ele>411.1</ele>
        <time>2018-09-02T07:56:28Z</time>
      </trkpt>
      <trkpt lat="49.78003" lon="4.93047">
        <ele>412.54</ele>
        <time>2018-09-02T07:56:42Z</time>
      </trkpt>
      <trkpt lat="49.78011" lon="4.93042">
        <ele>412.54</ele>
        <time>2018-09-02T07:56:53Z</time>
      </trkpt>
      <trkpt lat="49.78018" lon="4.93042">
        <ele>413.02</ele>
        <time>2018-09-02T07:57:04Z</time>
      </trkpt>
      <trkpt lat="49.78025" lon="4.93045">
        <ele>413.98</ele>
        <time>2018-09-02T07:57:16Z</time>
      </trkpt>
      <trkpt lat="49.7805" lon="4.93028">
        <ele>415.43</ele>
        <time>2018-09-02T07:57:30Z</time>
      </trkpt>
      <trkpt lat="49.78069" lon="4.93014">
        <ele>414.95</ele>
        <time>2018-09-02T07:57:44Z</time>
      </trkpt>
      <trkpt lat="49.78089" lon="4.93005">
        <ele>415.43</ele>
        <time>2018-09-02T07:57:57Z</time>
      </trkpt>
      <trkpt lat="49.78106" lon="4.92995">
        <ele>414.47</ele>
        <time>2018-09-02T07:58:09Z</time>
      </trkpt>
      <trkpt lat="49.78116" lon="4.92996">
        <ele>414.47</ele>
        <time>2018-09-02T07:58:20Z</time>
      </trkpt>
      <trkpt lat="49.78126" lon="4.92992">
        <ele>414.95</ele>
        <time>2018-09-02T07:58:33Z</time>
      </trkpt>
      <trkpt lat="49.78142" lon="4.92985">
        <ele>415.43</ele>
        <time>2018-09-02T07:58:46Z</time>
      </trkpt>
      <trkpt lat="49.78158" lon="4.92966">
        <ele>416.39</ele>
        <time>2018-09-02T07:58:58Z</time>
      </trkpt>
      <trkpt lat="49.78165" lon="4.9297">
        <ele>415.43</ele>
        <time>2018-09-02T07:59:06Z</time>
      </trkpt>
      <trkpt lat="49.78176" lon="4.9297">
        <ele>413.5</ele>
        <time>2018-09-02T07:59:19Z</time>
      </trkpt>
      <trkpt lat="49.78179" lon="4.9297">
        <ele>413.02</ele>
        <time>2018-09-02T07:59:33Z</time>
      </trkpt>
      <trkpt lat="49.78182" lon="4.92975">
        <ele>413.5</ele>
        <time>2018-09-02T07:59:59Z</time>
      </trkpt>
      <trkpt lat="49.78184" lon="4.92976">
        <ele>412.06</ele>
        <time>2018-09-02T08:00:28Z</time>
      </trkpt>
      <trkpt lat="49.78185" lon="4.92977">
        <ele>411.1</ele>
        <time>2018-09-02T08:00:53Z</time>
      </trkpt>
      <trkpt lat="49.78188" lon="4.92973">
        <ele>411.58</ele>
        <time>2018-09-02T08:01:15Z</time>
      </trkpt>
      <trkpt lat="49.78188" lon="4.92971">
        <ele>411.58</ele>
        <time>2018-09-02T08:01:37Z</time>
      </trkpt>
      <trkpt lat="49.7819" lon="4.92965">
        <ele>411.1</ele>
        <time>2018-09-02T08:01:53Z</time>
      </trkpt>
      <trkpt lat="49.78189" lon="4.92963">
        <ele>410.62</ele>
        <time>2018-09-02T08:01:57Z</time>
      </trkpt>
      <trkpt lat="49.78201" lon="4.92956">
        <ele>408.22</ele>
        <time>2018-09-02T08:02:13Z</time>
      </trkpt>
      <trkpt lat="49.78215" lon="4.92948">
        <ele>406.29</ele>
        <time>2018-09-02T08:02:31Z</time>
      </trkpt>
      <trkpt lat="49.78227" lon="4.92943">
        <ele>406.77</ele>
        <time>2018-09-02T08:02:43Z</time>
      </trkpt>
      <trkpt lat="49.78244" lon="4.92934">
        <ele>407.26</ele>
        <time>2018-09-02T08:03:00Z</time>
      </trkpt>
      <trkpt lat="49.78268" lon="4.92934">
        <ele>404.37</ele>
        <time>2018-09-02T08:03:21Z</time>
      </trkpt>
      <trkpt lat="49.78274" lon="4.92935">
        <ele>404.85</ele>
        <time>2018-09-02T08:03:26Z</time>
      </trkpt>
      <trkpt lat="49.78282" lon="4.92935">
        <ele>404.85</ele>
        <time>2018-09-02T08:03:31Z</time>
      </trkpt>
      <trkpt lat="49.78306" lon="4.92927">
        <ele>402.93</ele>
        <time>2018-09-02T08:03:49Z</time>
      </trkpt>
      <trkpt lat="49.78321" lon="4.92932">
        <ele>397.64</ele>
        <time>2018-09-02T08:04:00Z</time>
      </trkpt>
      <trkpt lat="49.78344" lon="4.92926">
        <ele>391.87</ele>
        <time>2018-09-02T08:04:16Z</time>
      </trkpt>
      <trkpt lat="49.78364" lon="4.92925">
        <ele>387.07</ele>
        <time>2018-09-02T08:04:33Z</time>
      </trkpt>
      <trkpt lat="49.78376" lon="4.92927">
        <ele>387.07</ele>
        <time>2018-09-02T08:04:48Z</time>
      </trkpt>
      <trkpt lat="49.78395" lon="4.92928">
        <ele>388.03</ele>
        <time>2018-09-02T08:05:04Z</time>
      </trkpt>
      <trkpt lat="49.78415" lon="4.92928">
        <ele>388.51</ele>
        <time>2018-09-02T08:05:19Z</time>
      </trkpt>
      <trkpt lat="49.78435" lon="4.92926">
        <ele>388.51</ele>
        <time>2018-09-02T08:05:34Z</time>
      </trkpt>
      <trkpt lat="49.78456" lon="4.92929">
        <ele>388.99</ele>
        <time>2018-09-02T08:05:50Z</time>
      </trkpt>
      <trkpt lat="49.78467" lon="4.9293">
        <ele>386.59</ele>
        <time>2018-09-02T08:06:04Z</time>
      </trkpt>
      <trkpt lat="49.78469" lon="4.92931">
        <ele>386.11</ele>
        <time>2018-09-02T08:06:18Z</time>
      </trkpt>
      <trkpt lat="49.78477" lon="4.9293">
        <ele>386.59</ele>
        <time>2018-09-02T08:06:33Z</time>
      </trkpt>
      <trkpt lat="49.78493" lon="4.92913">
        <ele>388.51</ele>
        <time>2018-09-02T08:06:46Z</time>
      </trkpt>
      <trkpt lat="49.78499" lon="4.92902">
        <ele>389.47</ele>
        <time>2018-09-02T08:06:54Z</time>
      </trkpt>
      <trkpt lat="49.78501" lon="4.92896">
        <ele>389.95</ele>
        <time>2018-09-02T08:06:57Z</time>
      </trkpt>
      <trkpt lat="49.78506" lon="4.9287">
        <ele>395.24</ele>
        <time>2018-09-02T08:07:11Z</time>
      </trkpt>
      <trkpt lat="49.78511" lon="4.92847">
        <ele>397.16</ele>
        <time>2018-09-02T08:07:26Z</time>
      </trkpt>
      <trkpt lat="49.78517" lon="4.92821">
        <ele>398.6</ele>
        <time>2018-09-02T08:07:40Z</time>
      </trkpt>
      <trkpt lat="49.78521" lon="4.92801">
        <ele>399.57</ele>
        <time>2018-09-02T08:07:54Z</time>
      </trkpt>
      <trkpt lat="49.78529" lon="4.92767">
        <ele>399.08</ele>
        <time>2018-09-02T08:08:08Z</time>
      </trkpt>
      <trkpt lat="49.78533" lon="4.92755">
        <ele>400.53</ele>
        <time>2018-09-02T08:08:15Z</time>
      </trkpt>
      <trkpt lat="49.78539" lon="4.92744">
        <ele>401.49</ele>
        <time>2018-09-02T08:08:21Z</time>
      </trkpt>
      <trkpt lat="49.78546" lon="4.92723">
        <ele>403.41</ele>
        <time>2018-09-02T08:08:36Z</time>
      </trkpt>
      <trkpt lat="49.78552" lon="4.92702">
        <ele>406.29</ele>
        <time>2018-09-02T08:08:49Z</time>
      </trkpt>
      <trkpt lat="49.78558" lon="4.92691">
        <ele>404.85</ele>
        <time>2018-09-02T08:08:57Z</time>
      </trkpt>
      <trkpt lat="49.78564" lon="4.92684">
        <ele>404.37</ele>
        <time>2018-09-02T08:09:01Z</time>
      </trkpt>
      <trkpt lat="49.78568" lon="4.92674">
        <ele>402.93</ele>
        <time>2018-09-02T08:09:10Z</time>
      </trkpt>
      <trkpt lat="49.78577" lon="4.92668">
        <ele>403.89</ele>
        <time>2018-09-02T08:09:18Z</time>
      </trkpt>
      <trkpt lat="49.78588" lon="4.92657">
        <ele>401.49</ele>
        <time>2018-09-02T08:09:30Z</time>
      </trkpt>
      <trkpt lat="49.78592" lon="4.9265">
        <ele>401.49</ele>
        <time>2018-09-02T08:09:39Z</time>
      </trkpt>
      <trkpt lat="49.78599" lon="4.92641">
        <ele>401.97</ele>
        <time>2018-09-02T08:09:45Z</time>
      </trkpt>
      <trkpt lat="49.78603" lon="4.92638">
        <ele>402.45</ele>
        <time>2018-09-02T08:09:48Z</time>
      </trkpt>
      <trkpt lat="49.78606" lon="4.92635">
        <ele>402.45</ele>
        <time>2018-09-02T08:09:50Z</time>
      </trkpt>
      <trkpt lat="49.78608" lon="4.92633">
        <ele>402.93</ele>
        <time>2018-09-02T08:09:52Z</time>
      </trkpt>
      <trkpt lat="49.78625" lon="4.92615">
        <ele>401.97</ele>
        <time>2018-09-02T08:10:04Z</time>
      </trkpt>
      <trkpt lat="49.78627" lon="4.92614">
        <ele>401.97</ele>
        <time>2018-09-02T08:10:05Z</time>
      </trkpt>
      <trkpt lat="49.78642" lon="4.92601">
        <ele>402.45</ele>
        <time>2018-09-02T08:10:22Z</time>
      </trkpt>
      <trkpt lat="49.78642" lon="4.92601">
        <ele>403.89</ele>
        <time>2018-09-02T08:10:39Z</time>
      </trkpt>
      <trkpt lat="49.78644" lon="4.926">
        <ele>404.85</ele>
        <time>2018-09-02T08:10:56Z</time>
      </trkpt>
      <trkpt lat="49.78644" lon="4.92599">
        <ele>405.81</ele>
        <time>2018-09-02T08:11:12Z</time>
      </trkpt>
      <trkpt lat="49.78645" lon="4.92598">
        <ele>406.77</ele>
        <time>2018-09-02T08:11:30Z</time>
      </trkpt>
      <trkpt lat="49.78646" lon="4.92596">
        <ele>407.26</ele>
        <time>2018-09-02T08:11:49Z</time>
      </trkpt>
      <trkpt lat="49.78647" lon="4.92583">
        <ele>409.18</ele>
        <time>2018-09-02T08:12:03Z</time>
      </trkpt>
      <trkpt lat="49.7864" lon="4.92569">
        <ele>407.74</ele>
        <time>2018-09-02T08:12:15Z</time>
      </trkpt>
      <trkpt lat="49.78636" lon="4.92554">
        <ele>409.66</ele>
        <time>2018-09-02T08:12:25Z</time>
      </trkpt>
      <trkpt lat="49.78632" lon="4.92542">
        <ele>410.62</ele>
        <time>2018-09-02T08:12:35Z</time>
      </trkpt>
      <trkpt lat="49.78631" lon="4.92536">
        <ele>410.14</ele>
        <time>2018-09-02T08:12:49Z</time>
      </trkpt>
      <trkpt lat="49.78625" lon="4.92525">
        <ele>409.18</ele>
        <time>2018-09-02T08:13:01Z</time>
      </trkpt>
      <trkpt lat="49.78615" lon="4.925">
        <ele>409.66</ele>
        <time>2018-09-02T08:13:18Z</time>
      </trkpt>
      <trkpt lat="49.78603" lon="4.92473">
        <ele>411.1</ele>
        <time>2018-09-02T08:13:35Z</time>
      </trkpt>
      <trkpt lat="49.78585" lon="4.92442">
        <ele>409.66</ele>
        <time>2018-09-02T08:13:52Z</time>
      </trkpt>
      <trkpt lat="49.78577" lon="4.92425">
        <ele>408.7</ele>
        <time>2018-09-02T08:14:03Z</time>
      </trkpt>
      <trkpt lat="49.78567" lon="4.92402">
        <ele>409.18</ele>
        <time>2018-09-02T08:14:18Z</time>
      </trkpt>
      <trkpt lat="49.78559" lon="4.92385">
        <ele>407.74</ele>
        <time>2018-09-02T08:14:31Z</time>
      </trkpt>
      <trkpt lat="49.78554" lon="4.92364">
        <ele>408.7</ele>
        <time>2018-09-02T08:14:44Z</time>
      </trkpt>
      <trkpt lat="49.78547" lon="4.92347">
        <ele>410.62</ele>
        <time>2018-09-02T08:14:59Z</time>
      </trkpt>
      <trkpt lat="49.78543" lon="4.92333">
        <ele>410.14</ele>
        <time>2018-09-02T08:15:08Z</time>
      </trkpt>
      <trkpt lat="49.78539" lon="4.92321">
        <ele>409.66</ele>
        <time>2018-09-02T08:15:14Z</time>
      </trkpt>
      <trkpt lat="49.78539" lon="4.92317">
        <ele>410.14</ele>
        <time>2018-09-02T08:15:18Z</time>
      </trkpt>
      <trkpt lat="49.78535" lon="4.92301">
        <ele>410.14</ele>
        <time>2018-09-02T08:15:28Z</time>
      </trkpt>
      <trkpt lat="49.78532" lon="4.92277">
        <ele>411.58</ele>
        <time>2018-09-02T08:15:45Z</time>
      </trkpt>
      <trkpt lat="49.78531" lon="4.92255">
        <ele>410.62</ele>
        <time>2018-09-02T08:15:56Z</time>
      </trkpt>
      <trkpt lat="49.7853" lon="4.92244">
        <ele>409.66</ele>
        <time>2018-09-02T08:16:00Z</time>
      </trkpt>
      <trkpt lat="49.78523" lon="4.92221">
        <ele>410.62</ele>
        <time>2018-09-02T08:16:15Z</time>
      </trkpt>
      <trkpt lat="49.78519" lon="4.92209">
        <ele>410.62</ele>
        <time>2018-09-02T08:16:26Z</time>
      </trkpt>
      <trkpt lat="49.7851" lon="4.92184">
        <ele>408.22</ele>
        <time>2018-09-02T08:16:39Z</time>
      </trkpt>
      <trkpt lat="49.78498" lon="4.92162">
        <ele>408.22</ele>
        <time>2018-09-02T08:16:52Z</time>
      </trkpt>
      <trkpt lat="49.78488" lon="4.92139">
        <ele>407.74</ele>
        <time>2018-09-02T08:17:07Z</time>
      </trkpt>
      <trkpt lat="49.78481" lon="4.92123">
        <ele>406.77</ele>
        <time>2018-09-02T08:17:19Z</time>
      </trkpt>
      <trkpt lat="49.7847" lon="4.92098">
        <ele>407.26</ele>
        <time>2018-09-02T08:17:36Z</time>
      </trkpt>
      <trkpt lat="49.7846" lon="4.92079">
        <ele>406.77</ele>
        <time>2018-09-02T08:17:48Z</time>
      </trkpt>
      <trkpt lat="49.78453" lon="4.92061">
        <ele>407.26</ele>
        <time>2018-09-02T08:18:02Z</time>
      </trkpt>
      <trkpt lat="49.78443" lon="4.92037">
        <ele>406.29</ele>
        <time>2018-09-02T08:18:16Z</time>
      </trkpt>
      <trkpt lat="49.78441" lon="4.92033">
        <ele>406.29</ele>
        <time>2018-09-02T08:18:19Z</time>
      </trkpt>
      <trkpt lat="49.78431" lon="4.92008">
        <ele>406.77</ele>
        <time>2018-09-02T08:18:34Z</time>
      </trkpt>
      <trkpt lat="49.78429" lon="4.92">
        <ele>409.66</ele>
        <time>2018-09-02T08:18:40Z</time>
      </trkpt>
      <trkpt lat="49.78426" lon="4.91996">
        <ele>410.62</ele>
        <time>2018-09-02T08:18:45Z</time>
      </trkpt>
      <trkpt lat="49.78421" lon="4.91983">
        <ele>411.58</ele>
        <time>2018-09-02T08:18:54Z</time>
      </trkpt>
      <trkpt lat="49.78418" lon="4.91977">
        <ele>412.06</ele>
        <time>2018-09-02T08:18:58Z</time>
      </trkpt>
      <trkpt lat="49.7841" lon="4.91959">
        <ele>412.54</ele>
        <time>2018-09-02T08:19:11Z</time>
      </trkpt>
      <trkpt lat="49.78405" lon="4.91951">
        <ele>412.54</ele>
        <time>2018-09-02T08:19:17Z</time>
      </trkpt>
      <trkpt lat="49.78396" lon="4.91938">
        <ele>410.14</ele>
        <time>2018-09-02T08:19:25Z</time>
      </trkpt>
      <trkpt lat="49.78387" lon="4.91921">
        <ele>408.7</ele>
        <time>2018-09-02T08:19:38Z</time>
      </trkpt>
      <trkpt lat="49.78382" lon="4.91914">
        <ele>409.18</ele>
        <time>2018-09-02T08:19:44Z</time>
      </trkpt>
      <trkpt lat="49.78368" lon="4.91903">
        <ele>408.7</ele>
        <time>2018-09-02T08:19:59Z</time>
      </trkpt>
      <trkpt lat="49.7836" lon="4.91892">
        <ele>407.26</ele>
        <time>2018-09-02T08:20:09Z</time>
      </trkpt>
      <trkpt lat="49.78347" lon="4.91878">
        <ele>406.77</ele>
        <time>2018-09-02T08:20:23Z</time>
      </trkpt>
      <trkpt lat="49.78335" lon="4.91865">
        <ele>406.77</ele>
        <time>2018-09-02T08:20:36Z</time>
      </trkpt>
      <trkpt lat="49.78333" lon="4.91861">
        <ele>406.77</ele>
        <time>2018-09-02T08:20:42Z</time>
      </trkpt>
      <trkpt lat="49.7832" lon="4.91846">
        <ele>407.26</ele>
        <time>2018-09-02T08:20:58Z</time>
      </trkpt>
      <trkpt lat="49.78311" lon="4.91836">
        <ele>407.74</ele>
        <time>2018-09-02T08:21:12Z</time>
      </trkpt>
      <trkpt lat="49.78302" lon="4.91827">
        <ele>407.74</ele>
        <time>2018-09-02T08:21:26Z</time>
      </trkpt>
      <trkpt lat="49.78295" lon="4.91818">
        <ele>407.74</ele>
        <time>2018-09-02T08:21:44Z</time>
      </trkpt>
      <trkpt lat="49.7828" lon="4.918">
        <ele>409.18</ele>
        <time>2018-09-02T08:21:57Z</time>
      </trkpt>
      <trkpt lat="49.78269" lon="4.91784">
        <ele>407.26</ele>
        <time>2018-09-02T08:22:11Z</time>
      </trkpt>
      <trkpt lat="49.78253" lon="4.91767">
        <ele>405.81</ele>
        <time>2018-09-02T08:22:26Z</time>
      </trkpt>
      <trkpt lat="49.7824" lon="4.91755">
        <ele>404.85</ele>
        <time>2018-09-02T08:22:41Z</time>
      </trkpt>
      <trkpt lat="49.78229" lon="4.91744">
        <ele>401.49</ele>
        <time>2018-09-02T08:22:54Z</time>
      </trkpt>
      <trkpt lat="49.7822" lon="4.91733">
        <ele>399.08</ele>
        <time>2018-09-02T08:23:05Z</time>
      </trkpt>
      <trkpt lat="49.7822" lon="4.91728">
        <ele>399.08</ele>
        <time>2018-09-02T08:23:08Z</time>
      </trkpt>
      <trkpt lat="49.78212" lon="4.91716">
        <ele>400.05</ele>
        <time>2018-09-02T08:23:23Z</time>
      </trkpt>
      <trkpt lat="49.78205" lon="4.91704">
        <ele>401.49</ele>
        <time>2018-09-02T08:23:36Z</time>
      </trkpt>
      <trkpt lat="49.78197" lon="4.91689">
        <ele>401.49</ele>
        <time>2018-09-02T08:23:51Z</time>
      </trkpt>
      <trkpt lat="49.78185" lon="4.91665">
        <ele>403.41</ele>
        <time>2018-09-02T08:24:05Z</time>
      </trkpt>
      <trkpt lat="49.78178" lon="4.91647">
        <ele>405.81</ele>
        <time>2018-09-02T08:24:19Z</time>
      </trkpt>
      <trkpt lat="49.78166" lon="4.91626">
        <ele>409.18</ele>
        <time>2018-09-02T08:24:35Z</time>
      </trkpt>
      <trkpt lat="49.78155" lon="4.91607">
        <ele>409.18</ele>
        <time>2018-09-02T08:24:48Z</time>
      </trkpt>
      <trkpt lat="49.78148" lon="4.9159">
        <ele>409.66</ele>
        <time>2018-09-02T08:25:00Z</time>
      </trkpt>
      <trkpt lat="49.78147" lon="4.91589">
        <ele>409.66</ele>
        <time>2018-09-02T08:25:01Z</time>
      </trkpt>
      <trkpt lat="49.78136" lon="4.91576">
        <ele>409.18</ele>
        <time>2018-09-02T08:25:16Z</time>
      </trkpt>
      <trkpt lat="49.78122" lon="4.91554">
        <ele>404.85</ele>
        <time>2018-09-02T08:25:31Z</time>
      </trkpt>
      <trkpt lat="49.78112" lon="4.91534">
        <ele>403.41</ele>
        <time>2018-09-02T08:25:48Z</time>
      </trkpt>
      <trkpt lat="49.78102" lon="4.91511">
        <ele>405.33</ele>
        <time>2018-09-02T08:26:06Z</time>
      </trkpt>
      <trkpt lat="49.78093" lon="4.91495">
        <ele>405.81</ele>
        <time>2018-09-02T08:26:22Z</time>
      </trkpt>
      <trkpt lat="49.78085" lon="4.91481">
        <ele>405.33</ele>
        <time>2018-09-02T08:26:38Z</time>
      </trkpt>
      <trkpt lat="49.7807" lon="4.91457">
        <ele>407.26</ele>
        <time>2018-09-02T08:26:53Z</time>
      </trkpt>
      <trkpt lat="49.78059" lon="4.91433">
        <ele>404.85</ele>
        <time>2018-09-02T08:27:05Z</time>
      </trkpt>
      <trkpt lat="49.78044" lon="4.9141">
        <ele>404.37</ele>
        <time>2018-09-02T08:27:23Z</time>
      </trkpt>
      <trkpt lat="49.78031" lon="4.91388">
        <ele>405.81</ele>
        <time>2018-09-02T08:27:40Z</time>
      </trkpt>
      <trkpt lat="49.78023" lon="4.9137">
        <ele>408.22</ele>
        <time>2018-09-02T08:27:53Z</time>
      </trkpt>
      <trkpt lat="49.78009" lon="4.91353">
        <ele>411.58</ele>
        <time>2018-09-02T08:28:07Z</time>
      </trkpt>
      <trkpt lat="49.77986" lon="4.91331">
        <ele>406.77</ele>
        <time>2018-09-02T08:28:23Z</time>
      </trkpt>
      <trkpt lat="49.77965" lon="4.91316">
        <ele>400.53</ele>
        <time>2018-09-02T08:28:37Z</time>
      </trkpt>
      <trkpt lat="49.77945" lon="4.91304">
        <ele>396.2</ele>
        <time>2018-09-02T08:28:53Z</time>
      </trkpt>
      <trkpt lat="49.77944" lon="4.91304">
        <ele>396.68</ele>
        <time>2018-09-02T08:28:54Z</time>
      </trkpt>
      <trkpt lat="49.77932" lon="4.91301">
        <ele>395.24</ele>
        <time>2018-09-02T08:29:09Z</time>
      </trkpt>
      <trkpt lat="49.77916" lon="4.91293">
        <ele>391.39</ele>
        <time>2018-09-02T08:29:25Z</time>
      </trkpt>
      <trkpt lat="49.77899" lon="4.91285">
        <ele>393.32</ele>
        <time>2018-09-02T08:29:38Z</time>
      </trkpt>
      <trkpt lat="49.77893" lon="4.9128">
        <ele>393.32</ele>
        <time>2018-09-02T08:29:42Z</time>
      </trkpt>
      <trkpt lat="49.77881" lon="4.91275">
        <ele>391.39</ele>
        <time>2018-09-02T08:29:52Z</time>
      </trkpt>
      <trkpt lat="49.77869" lon="4.91269">
        <ele>388.99</ele>
        <time>2018-09-02T08:30:06Z</time>
      </trkpt>
      <trkpt lat="49.77861" lon="4.91266">
        <ele>389.47</ele>
        <time>2018-09-02T08:30:16Z</time>
      </trkpt>
      <trkpt lat="49.77844" lon="4.91254">
        <ele>388.99</ele>
        <time>2018-09-02T08:30:30Z</time>
      </trkpt>
      <trkpt lat="49.77828" lon="4.91247">
        <ele>385.63</ele>
        <time>2018-09-02T08:30:44Z</time>
      </trkpt>
      <trkpt lat="49.77815" lon="4.91239">
        <ele>383.7</ele>
        <time>2018-09-02T08:31:00Z</time>
      </trkpt>
      <trkpt lat="49.778" lon="4.91232">
        <ele>384.18</ele>
        <time>2018-09-02T08:31:12Z</time>
      </trkpt>
      <trkpt lat="49.77785" lon="4.91218">
        <ele>384.18</ele>
        <time>2018-09-02T08:31:28Z</time>
      </trkpt>
      <trkpt lat="49.77775" lon="4.91204">
        <ele>385.15</ele>
        <time>2018-09-02T08:31:43Z</time>
      </trkpt>
      <trkpt lat="49.77769" lon="4.91196">
        <ele>385.63</ele>
        <time>2018-09-02T08:31:53Z</time>
      </trkpt>
      <trkpt lat="49.77757" lon="4.91177">
        <ele>385.63</ele>
        <time>2018-09-02T08:32:06Z</time>
      </trkpt>
      <trkpt lat="49.77744" lon="4.9115">
        <ele>386.59</ele>
        <time>2018-09-02T08:32:23Z</time>
      </trkpt>
      <trkpt lat="49.77735" lon="4.91131">
        <ele>387.55</ele>
        <time>2018-09-02T08:32:35Z</time>
      </trkpt>
      <trkpt lat="49.77726" lon="4.91109">
        <ele>388.99</ele>
        <time>2018-09-02T08:32:51Z</time>
      </trkpt>
      <trkpt lat="49.77723" lon="4.91104">
        <ele>388.51</ele>
        <time>2018-09-02T08:32:55Z</time>
      </trkpt>
      <trkpt lat="49.77719" lon="4.91089">
        <ele>386.59</ele>
        <time>2018-09-02T08:33:01Z</time>
      </trkpt>
      <trkpt lat="49.77712" lon="4.91063">
        <ele>382.74</ele>
        <time>2018-09-02T08:33:15Z</time>
      </trkpt>
      <trkpt lat="49.77702" lon="4.91047">
        <ele>380.82</ele>
        <time>2018-09-02T08:33:29Z</time>
      </trkpt>
      <trkpt lat="49.77691" lon="4.91018">
        <ele>381.3</ele>
        <time>2018-09-02T08:33:49Z</time>
      </trkpt>
      <trkpt lat="49.77682" lon="4.91">
        <ele>383.22</ele>
        <time>2018-09-02T08:34:05Z</time>
      </trkpt>
      <trkpt lat="49.77676" lon="4.90989">
        <ele>384.66</ele>
        <time>2018-09-02T08:34:14Z</time>
      </trkpt>
      <trkpt lat="49.77673" lon="4.90979">
        <ele>384.18</ele>
        <time>2018-09-02T08:34:19Z</time>
      </trkpt>
      <trkpt lat="49.77667" lon="4.90958">
        <ele>381.3</ele>
        <time>2018-09-02T08:34:31Z</time>
      </trkpt>
      <trkpt lat="49.7766" lon="4.90941">
        <ele>378.9</ele>
        <time>2018-09-02T08:34:46Z</time>
      </trkpt>
      <trkpt lat="49.77648" lon="4.90913">
        <ele>375.05</ele>
        <time>2018-09-02T08:35:03Z</time>
      </trkpt>
      <trkpt lat="49.77639" lon="4.90888">
        <ele>373.13</ele>
        <time>2018-09-02T08:35:20Z</time>
      </trkpt>
      <trkpt lat="49.77628" lon="4.90867">
        <ele>374.57</ele>
        <time>2018-09-02T08:35:36Z</time>
      </trkpt>
      <trkpt lat="49.77625" lon="4.9086">
        <ele>375.05</ele>
        <time>2018-09-02T08:35:42Z</time>
      </trkpt>
      <trkpt lat="49.7761" lon="4.90843">
        <ele>377.45</ele>
        <time>2018-09-02T08:35:57Z</time>
      </trkpt>
      <trkpt lat="49.77592" lon="4.90822">
        <ele>378.9</ele>
        <time>2018-09-02T08:36:13Z</time>
      </trkpt>
      <trkpt lat="49.77575" lon="4.9081">
        <ele>379.86</ele>
        <time>2018-09-02T08:36:26Z</time>
      </trkpt>
      <trkpt lat="49.77558" lon="4.90801">
        <ele>381.78</ele>
        <time>2018-09-02T08:36:42Z</time>
      </trkpt>
      <trkpt lat="49.77542" lon="4.90792">
        <ele>384.66</ele>
        <time>2018-09-02T08:36:59Z</time>
      </trkpt>
      <trkpt lat="49.77523" lon="4.90784">
        <ele>386.11</ele>
        <time>2018-09-02T08:37:16Z</time>
      </trkpt>
      <trkpt lat="49.77507" lon="4.90781">
        <ele>385.63</ele>
        <time>2018-09-02T08:37:32Z</time>
      </trkpt>
      <trkpt lat="49.77487" lon="4.9078">
        <ele>382.74</ele>
        <time>2018-09-02T08:37:47Z</time>
      </trkpt>
      <trkpt lat="49.77468" lon="4.90769">
        <ele>381.3</ele>
        <time>2018-09-02T08:38:01Z</time>
      </trkpt>
      <trkpt lat="49.77462" lon="4.90767">
        <ele>382.74</ele>
        <time>2018-09-02T08:38:07Z</time>
      </trkpt>
      <trkpt lat="49.7745" lon="4.90763">
        <ele>383.22</ele>
        <time>2018-09-02T08:38:22Z</time>
      </trkpt>
      <trkpt lat="49.77443" lon="4.90762">
        <ele>381.3</ele>
        <time>2018-09-02T08:38:30Z</time>
      </trkpt>
      <trkpt lat="49.77435" lon="4.90757">
        <ele>381.78</ele>
        <time>2018-09-02T08:38:41Z</time>
      </trkpt>
      <trkpt lat="49.77428" lon="4.90754">
        <ele>382.74</ele>
        <time>2018-09-02T08:38:57Z</time>
      </trkpt>
      <trkpt lat="49.77416" lon="4.90749">
        <ele>382.74</ele>
        <time>2018-09-02T08:39:08Z</time>
      </trkpt>
      <trkpt lat="49.77389" lon="4.90736">
        <ele>379.38</ele>
        <time>2018-09-02T08:39:25Z</time>
      </trkpt>
      <trkpt lat="49.77363" lon="4.90727">
        <ele>376.01</ele>
        <time>2018-09-02T08:39:41Z</time>
      </trkpt>
      <trkpt lat="49.77344" lon="4.9072">
        <ele>376.01</ele>
        <time>2018-09-02T08:39:56Z</time>
      </trkpt>
      <trkpt lat="49.77335" lon="4.90717">
        <ele>376.01</ele>
        <time>2018-09-02T08:40:03Z</time>
      </trkpt>
      <trkpt lat="49.77309" lon="4.90709">
        <ele>374.57</ele>
        <time>2018-09-02T08:40:18Z</time>
      </trkpt>
      <trkpt lat="49.77307" lon="4.90709">
        <ele>374.09</ele>
        <time>2018-09-02T08:40:20Z</time>
      </trkpt>
      <trkpt lat="49.77292" lon="4.90702">
        <ele>374.57</ele>
        <time>2018-09-02T08:40:30Z</time>
      </trkpt>
      <trkpt lat="49.77273" lon="4.90695">
        <ele>376.49</ele>
        <time>2018-09-02T08:40:45Z</time>
      </trkpt>
      <trkpt lat="49.77261" lon="4.90685">
        <ele>381.78</ele>
        <time>2018-09-02T08:40:58Z</time>
      </trkpt>
      <trkpt lat="49.77252" lon="4.90683">
        <ele>379.86</ele>
        <time>2018-09-02T08:41:04Z</time>
      </trkpt>
      <trkpt lat="49.77235" lon="4.90669">
        <ele>377.94</ele>
        <time>2018-09-02T08:41:17Z</time>
      </trkpt>
      <trkpt lat="49.77214" lon="4.90664">
        <ele>371.69</ele>
        <time>2018-09-02T08:41:32Z</time>
      </trkpt>
      <trkpt lat="49.77199" lon="4.90657">
        <ele>369.28</ele>
        <time>2018-09-02T08:41:44Z</time>
      </trkpt>
      <trkpt lat="49.77193" lon="4.9067">
        <ele>358.23</ele>
        <time>2018-09-02T08:42:04Z</time>
      </trkpt>
      <trkpt lat="49.7719" lon="4.90673">
        <ele>354.38</ele>
        <time>2018-09-02T08:42:17Z</time>
      </trkpt>
      <trkpt lat="49.77183" lon="4.90671">
        <ele>351.98</ele>
        <time>2018-09-02T08:42:30Z</time>
      </trkpt>
      <trkpt lat="49.77166" lon="4.90666">
        <ele>346.69</ele>
        <time>2018-09-02T08:42:43Z</time>
      </trkpt>
      <trkpt lat="49.77153" lon="4.90664">
        <ele>346.69</ele>
        <time>2018-09-02T08:42:57Z</time>
      </trkpt>
      <trkpt lat="49.77136" lon="4.90657">
        <ele>347.65</ele>
        <time>2018-09-02T08:43:13Z</time>
      </trkpt>
      <trkpt lat="49.77122" lon="4.90651">
        <ele>345.73</ele>
        <time>2018-09-02T08:43:26Z</time>
      </trkpt>
      <trkpt lat="49.77114" lon="4.90649">
        <ele>343.81</ele>
        <time>2018-09-02T08:43:38Z</time>
      </trkpt>
      <trkpt lat="49.77107" lon="4.90645">
        <ele>342.37</ele>
        <time>2018-09-02T08:44:00Z</time>
      </trkpt>
      <trkpt lat="49.77094" lon="4.90643">
        <ele>343.33</ele>
        <time>2018-09-02T08:44:12Z</time>
      </trkpt>
      <trkpt lat="49.77088" lon="4.90641">
        <ele>343.81</ele>
        <time>2018-09-02T08:44:19Z</time>
      </trkpt>
      <trkpt lat="49.77073" lon="4.90632">
        <ele>345.73</ele>
        <time>2018-09-02T08:44:32Z</time>
      </trkpt>
      <trkpt lat="49.77064" lon="4.90628">
        <ele>343.81</ele>
        <time>2018-09-02T08:44:44Z</time>
      </trkpt>
      <trkpt lat="49.77061" lon="4.90627">
        <ele>339.48</ele>
        <time>2018-09-02T08:44:57Z</time>
      </trkpt>
      <trkpt lat="49.77048" lon="4.90618">
        <ele>337.08</ele>
        <time>2018-09-02T08:45:12Z</time>
      </trkpt>
      <trkpt lat="49.77035" lon="4.9061">
        <ele>336.6</ele>
        <time>2018-09-02T08:45:29Z</time>
      </trkpt>
      <trkpt lat="49.77021" lon="4.90603">
        <ele>338.52</ele>
        <time>2018-09-02T08:45:46Z</time>
      </trkpt>
      <trkpt lat="49.7702" lon="4.90602">
        <ele>338.52</ele>
        <time>2018-09-02T08:45:47Z</time>
      </trkpt>
      <trkpt lat="49.77002" lon="4.90595">
        <ele>338.52</ele>
        <time>2018-09-02T08:46:00Z</time>
      </trkpt>
      <trkpt lat="49.76981" lon="4.90587">
        <ele>340.44</ele>
        <time>2018-09-02T08:46:14Z</time>
      </trkpt>
      <trkpt lat="49.76963" lon="4.90581">
        <ele>339.96</ele>
        <time>2018-09-02T08:46:28Z</time>
      </trkpt>
      <trkpt lat="49.76947" lon="4.90576">
        <ele>341.41</ele>
        <time>2018-09-02T08:46:44Z</time>
      </trkpt>
      <trkpt lat="49.76931" lon="4.90563">
        <ele>337.56</ele>
        <time>2018-09-02T08:47:00Z</time>
      </trkpt>
      <trkpt lat="49.76911" lon="4.90547">
        <ele>336.12</ele>
        <time>2018-09-02T08:47:20Z</time>
      </trkpt>
      <trkpt lat="49.76907" lon="4.90543">
        <ele>335.64</ele>
        <time>2018-09-02T08:47:23Z</time>
      </trkpt>
      <trkpt lat="49.76888" lon="4.90526">
        <ele>331.31</ele>
        <time>2018-09-02T08:47:38Z</time>
      </trkpt>
      <trkpt lat="49.76871" lon="4.90512">
        <ele>327.95</ele>
        <time>2018-09-02T08:47:53Z</time>
      </trkpt>
      <trkpt lat="49.76857" lon="4.90498">
        <ele>326.02</ele>
        <time>2018-09-02T08:48:05Z</time>
      </trkpt>
      <trkpt lat="49.76839" lon="4.90478">
        <ele>320.74</ele>
        <time>2018-09-02T08:48:20Z</time>
      </trkpt>
      <trkpt lat="49.76824" lon="4.90458">
        <ele>317.37</ele>
        <time>2018-09-02T08:48:34Z</time>
      </trkpt>
      <trkpt lat="49.76819" lon="4.90452">
        <ele>316.41</ele>
        <time>2018-09-02T08:48:40Z</time>
      </trkpt>
      <trkpt lat="49.76814" lon="4.90433">
        <ele>313.53</ele>
        <time>2018-09-02T08:48:58Z</time>
      </trkpt>
      <trkpt lat="49.76802" lon="4.90401">
        <ele>312.09</ele>
        <time>2018-09-02T08:49:15Z</time>
      </trkpt>
      <trkpt lat="49.76793" lon="4.90375">
        <ele>311.12</ele>
        <time>2018-09-02T08:49:29Z</time>
      </trkpt>
      <trkpt lat="49.76783" lon="4.90352">
        <ele>309.68</ele>
        <time>2018-09-02T08:49:43Z</time>
      </trkpt>
      <trkpt lat="49.76778" lon="4.90334">
        <ele>309.2</ele>
        <time>2018-09-02T08:49:53Z</time>
      </trkpt>
      <trkpt lat="49.76769" lon="4.90312">
        <ele>309.2</ele>
        <time>2018-09-02T08:50:09Z</time>
      </trkpt>
      <trkpt lat="49.76763" lon="4.90285">
        <ele>310.64</ele>
        <time>2018-09-02T08:50:26Z</time>
      </trkpt>
      <trkpt lat="49.76754" lon="4.90256">
        <ele>311.12</ele>
        <time>2018-09-02T08:50:42Z</time>
      </trkpt>
      <trkpt lat="49.76751" lon="4.90248">
        <ele>311.12</ele>
        <time>2018-09-02T08:50:46Z</time>
      </trkpt>
      <trkpt lat="49.76746" lon="4.90234">
        <ele>311.12</ele>
        <time>2018-09-02T08:50:53Z</time>
      </trkpt>
      <trkpt lat="49.76737" lon="4.90207">
        <ele>312.09</ele>
        <time>2018-09-02T08:51:10Z</time>
      </trkpt>
      <trkpt lat="49.76732" lon="4.90186">
        <ele>312.09</ele>
        <time>2018-09-02T08:51:24Z</time>
      </trkpt>
      <trkpt lat="49.76723" lon="4.90159">
        <ele>312.09</ele>
        <time>2018-09-02T08:51:38Z</time>
      </trkpt>
      <trkpt lat="49.76717" lon="4.90136">
        <ele>309.68</ele>
        <time>2018-09-02T08:51:52Z</time>
      </trkpt>
      <trkpt lat="49.76711" lon="4.90111">
        <ele>308.72</ele>
        <time>2018-09-02T08:52:07Z</time>
      </trkpt>
      <trkpt lat="49.76703" lon="4.90085">
        <ele>309.68</ele>
        <time>2018-09-02T08:52:24Z</time>
      </trkpt>
      <trkpt lat="49.76695" lon="4.90055">
        <ele>311.6</ele>
        <time>2018-09-02T08:52:41Z</time>
      </trkpt>
      <trkpt lat="49.76688" lon="4.9003">
        <ele>312.09</ele>
        <time>2018-09-02T08:52:56Z</time>
      </trkpt>
      <trkpt lat="49.76686" lon="4.90017">
        <ele>311.6</ele>
        <time>2018-09-02T08:53:09Z</time>
      </trkpt>
      <trkpt lat="49.76679" lon="4.89992">
        <ele>311.6</ele>
        <time>2018-09-02T08:53:26Z</time>
      </trkpt>
      <trkpt lat="49.76674" lon="4.89968">
        <ele>312.09</ele>
        <time>2018-09-02T08:53:41Z</time>
      </trkpt>
      <trkpt lat="49.76667" lon="4.89953">
        <ele>311.12</ele>
        <time>2018-09-02T08:53:56Z</time>
      </trkpt>
      <trkpt lat="49.76652" lon="4.89928">
        <ele>308.72</ele>
        <time>2018-09-02T08:54:10Z</time>
      </trkpt>
      <trkpt lat="49.76648" lon="4.89921">
        <ele>307.76</ele>
        <time>2018-09-02T08:54:14Z</time>
      </trkpt>
      <trkpt lat="49.76635" lon="4.89906">
        <ele>306.32</ele>
        <time>2018-09-02T08:54:29Z</time>
      </trkpt>
      <trkpt lat="49.76621" lon="4.89888">
        <ele>305.36</ele>
        <time>2018-09-02T08:54:43Z</time>
      </trkpt>
      <trkpt lat="49.76606" lon="4.89876">
        <ele>305.36</ele>
        <time>2018-09-02T08:54:59Z</time>
      </trkpt>
      <trkpt lat="49.76598" lon="4.89868">
        <ele>303.43</ele>
        <time>2018-09-02T08:55:09Z</time>
      </trkpt>
      <trkpt lat="49.76589" lon="4.89857">
        <ele>301.99</ele>
        <time>2018-09-02T08:55:23Z</time>
      </trkpt>
      <trkpt lat="49.76586" lon="4.89853">
        <ele>301.03</ele>
        <time>2018-09-02T08:55:28Z</time>
      </trkpt>
      <trkpt lat="49.76584" lon="4.89851">
        <ele>301.03</ele>
        <time>2018-09-02T08:55:30Z</time>
      </trkpt>
      <trkpt lat="49.76572" lon="4.8984">
        <ele>297.67</ele>
        <time>2018-09-02T08:55:46Z</time>
      </trkpt>
      <trkpt lat="49.76559" lon="4.89826">
        <ele>295.26</ele>
        <time>2018-09-02T08:56:01Z</time>
      </trkpt>
      <trkpt lat="49.76544" lon="4.8981">
        <ele>295.74</ele>
        <time>2018-09-02T08:56:15Z</time>
      </trkpt>
      <trkpt lat="49.76538" lon="4.89803">
        <ele>294.78</ele>
        <time>2018-09-02T08:56:20Z</time>
      </trkpt>
      <trkpt lat="49.76527" lon="4.89792">
        <ele>293.82</ele>
        <time>2018-09-02T08:56:28Z</time>
      </trkpt>
      <trkpt lat="49.76521" lon="4.89784">
        <ele>292.86</ele>
        <time>2018-09-02T08:56:33Z</time>
      </trkpt>
      <trkpt lat="49.76505" lon="4.89766">
        <ele>290.94</ele>
        <time>2018-09-02T08:56:46Z</time>
      </trkpt>
      <trkpt lat="49.76491" lon="4.8975">
        <ele>290.46</ele>
        <time>2018-09-02T08:56:59Z</time>
      </trkpt>
      <trkpt lat="49.7649" lon="4.89748">
        <ele>290.46</ele>
        <time>2018-09-02T08:57:00Z</time>
      </trkpt>
      <trkpt lat="49.76474" lon="4.8973">
        <ele>288.53</ele>
        <time>2018-09-02T08:57:14Z</time>
      </trkpt>
      <trkpt lat="49.76469" lon="4.89727">
        <ele>289.49</ele>
        <time>2018-09-02T08:57:27Z</time>
      </trkpt>
      <trkpt lat="49.76463" lon="4.89722">
        <ele>289.01</ele>
        <time>2018-09-02T08:57:41Z</time>
      </trkpt>
      <trkpt lat="49.76462" lon="4.89722">
        <ele>289.01</ele>
        <time>2018-09-02T08:57:58Z</time>
      </trkpt>
      <trkpt lat="49.76461" lon="4.8972">
        <ele>290.46</ele>
        <time>2018-09-02T08:58:18Z</time>
      </trkpt>
      <trkpt lat="49.7646" lon="4.89721">
        <ele>293.34</ele>
        <time>2018-09-02T08:58:54Z</time>
      </trkpt>
      <trkpt lat="49.7646" lon="4.8972">
        <ele>293.34</ele>
        <time>2018-09-02T08:59:19Z</time>
      </trkpt>
      <trkpt lat="49.7646" lon="4.89721">
        <ele>293.34</ele>
        <time>2018-09-02T08:59:38Z</time>
      </trkpt>
      <trkpt lat="49.76459" lon="4.89721">
        <ele>292.86</ele>
        <time>2018-09-02T08:59:57Z</time>
      </trkpt>
      <trkpt lat="49.76459" lon="4.89722">
        <ele>293.34</ele>
        <time>2018-09-02T09:00:19Z</time>
      </trkpt>
      <trkpt lat="49.76459" lon="4.89723">
        <ele>293.82</ele>
        <time>2018-09-02T09:00:43Z</time>
      </trkpt>
      <trkpt lat="49.76459" lon="4.89723">
        <ele>293.82</ele>
        <time>2018-09-02T09:00:57Z</time>
      </trkpt>
      <trkpt lat="49.7646" lon="4.89721">
        <ele>293.82</ele>
        <time>2018-09-02T09:01:24Z</time>
      </trkpt>
      <trkpt lat="49.76459" lon="4.8972">
        <ele>293.82</ele>
        <time>2018-09-02T09:01:43Z</time>
      </trkpt>
      <trkpt lat="49.76453" lon="4.89713">
        <ele>293.82</ele>
        <time>2018-09-02T09:02:02Z</time>
      </trkpt>
      <trkpt lat="49.7644" lon="4.89696">
        <ele>297.18</ele>
        <time>2018-09-02T09:02:15Z</time>
      </trkpt>
      <trkpt lat="49.76426" lon="4.89683">
        <ele>297.67</ele>
        <time>2018-09-02T09:02:30Z</time>
      </trkpt>
      <trkpt lat="49.76411" lon="4.89673">
        <ele>294.3</ele>
        <time>2018-09-02T09:02:46Z</time>
      </trkpt>
      <trkpt lat="49.76395" lon="4.89659">
        <ele>291.42</ele>
        <time>2018-09-02T09:03:01Z</time>
      </trkpt>
      <trkpt lat="49.76379" lon="4.89651">
        <ele>289.97</ele>
        <time>2018-09-02T09:03:15Z</time>
      </trkpt>
      <trkpt lat="49.76374" lon="4.89646">
        <ele>289.49</ele>
        <time>2018-09-02T09:03:19Z</time>
      </trkpt>
      <trkpt lat="49.76365" lon="4.89641">
        <ele>289.01</ele>
        <time>2018-09-02T09:03:28Z</time>
      </trkpt>
      <trkpt lat="49.76345" lon="4.89636">
        <ele>287.57</ele>
        <time>2018-09-02T09:03:45Z</time>
      </trkpt>
      <trkpt lat="49.76342" lon="4.89633">
        <ele>286.13</ele>
        <time>2018-09-02T09:03:57Z</time>
      </trkpt>
      <trkpt lat="49.76327" lon="4.8963">
        <ele>286.13</ele>
        <time>2018-09-02T09:04:09Z</time>
      </trkpt>
      <trkpt lat="49.76326" lon="4.89631">
        <ele>286.13</ele>
        <time>2018-09-02T09:04:10Z</time>
      </trkpt>
      <trkpt lat="49.76308" lon="4.89627">
        <ele>283.73</ele>
        <time>2018-09-02T09:04:25Z</time>
      </trkpt>
      <trkpt lat="49.76288" lon="4.89623">
        <ele>281.32</ele>
        <time>2018-09-02T09:04:42Z</time>
      </trkpt>
      <trkpt lat="49.76273" lon="4.8962">
        <ele>278.92</ele>
        <time>2018-09-02T09:04:55Z</time>
      </trkpt>
      <trkpt lat="49.76271" lon="4.8962">
        <ele>278.92</ele>
        <time>2018-09-02T09:04:57Z</time>
      </trkpt>
      <trkpt lat="49.76257" lon="4.89617">
        <ele>277.96</ele>
        <time>2018-09-02T09:05:13Z</time>
      </trkpt>
      <trkpt lat="49.76246" lon="4.89613">
        <ele>278.44</ele>
        <time>2018-09-02T09:05:24Z</time>
      </trkpt>
      <trkpt lat="49.76235" lon="4.89611">
        <ele>279.4</ele>
        <time>2018-09-02T09:05:33Z</time>
      </trkpt>
      <trkpt lat="49.76221" lon="4.896">
        <ele>279.4</ele>
        <time>2018-09-02T09:05:47Z</time>
      </trkpt>
      <trkpt lat="49.76217" lon="4.89596">
        <ele>280.36</ele>
        <time>2018-09-02T09:05:52Z</time>
      </trkpt>
      <trkpt lat="49.76212" lon="4.89591">
        <ele>282.77</ele>
        <time>2018-09-02T09:05:58Z</time>
      </trkpt>
      <trkpt lat="49.76201" lon="4.89582">
        <ele>284.21</ele>
        <time>2018-09-02T09:06:13Z</time>
      </trkpt>
      <trkpt lat="49.76189" lon="4.89567">
        <ele>286.13</ele>
        <time>2018-09-02T09:06:30Z</time>
      </trkpt>
      <trkpt lat="49.76176" lon="4.89545">
        <ele>285.65</ele>
        <time>2018-09-02T09:06:48Z</time>
      </trkpt>
      <trkpt lat="49.76172" lon="4.89539">
        <ele>284.69</ele>
        <time>2018-09-02T09:06:52Z</time>
      </trkpt>
      <trkpt lat="49.7617" lon="4.89532">
        <ele>283.73</ele>
        <time>2018-09-02T09:06:56Z</time>
      </trkpt>
      <trkpt lat="49.76152" lon="4.8952">
        <ele>277</ele>
        <time>2018-09-02T09:07:10Z</time>
      </trkpt>
      <trkpt lat="49.7614" lon="4.89506">
        <ele>273.63</ele>
        <time>2018-09-02T09:07:26Z</time>
      </trkpt>
      <trkpt lat="49.76132" lon="4.89497">
        <ele>271.71</ele>
        <time>2018-09-02T09:07:38Z</time>
      </trkpt>
      <trkpt lat="49.76125" lon="4.89489">
        <ele>269.79</ele>
        <time>2018-09-02T09:07:50Z</time>
      </trkpt>
      <trkpt lat="49.76112" lon="4.8948">
        <ele>266.9</ele>
        <time>2018-09-02T09:08:06Z</time>
      </trkpt>
      <trkpt lat="49.761" lon="4.89475">
        <ele>264.98</ele>
        <time>2018-09-02T09:08:20Z</time>
      </trkpt>
      <trkpt lat="49.76085" lon="4.8947">
        <ele>265.94</ele>
        <time>2018-09-02T09:08:36Z</time>
      </trkpt>
      <trkpt lat="49.76086" lon="4.8947">
        <ele>264.02</ele>
        <time>2018-09-02T09:08:52Z</time>
      </trkpt>
      <trkpt lat="49.76085" lon="4.8947">
        <ele>264.02</ele>
        <time>2018-09-02T09:08:56Z</time>
      </trkpt>
      <trkpt lat="49.7607" lon="4.89462">
        <ele>261.62</ele>
        <time>2018-09-02T09:09:09Z</time>
      </trkpt>
      <trkpt lat="49.76066" lon="4.8946">
        <ele>260.65</ele>
        <time>2018-09-02T09:09:12Z</time>
      </trkpt>
      <trkpt lat="49.76055" lon="4.89456">
        <ele>258.25</ele>
        <time>2018-09-02T09:09:22Z</time>
      </trkpt>
      <trkpt lat="49.76048" lon="4.89451">
        <ele>257.77</ele>
        <time>2018-09-02T09:09:31Z</time>
      </trkpt>
      <trkpt lat="49.76035" lon="4.89447">
        <ele>256.81</ele>
        <time>2018-09-02T09:09:47Z</time>
      </trkpt>
      <trkpt lat="49.76028" lon="4.89443">
        <ele>256.81</ele>
        <time>2018-09-02T09:09:56Z</time>
      </trkpt>
      <trkpt lat="49.76022" lon="4.8944">
        <ele>256.81</ele>
        <time>2018-09-02T09:10:04Z</time>
      </trkpt>
      <trkpt lat="49.76011" lon="4.89436">
        <ele>256.33</ele>
        <time>2018-09-02T09:10:18Z</time>
      </trkpt>
      <trkpt lat="49.76009" lon="4.89436">
        <ele>255.37</ele>
        <time>2018-09-02T09:10:31Z</time>
      </trkpt>
      <trkpt lat="49.75999" lon="4.89429">
        <ele>254.41</ele>
        <time>2018-09-02T09:10:44Z</time>
      </trkpt>
      <trkpt lat="49.75988" lon="4.89422">
        <ele>249.12</ele>
        <time>2018-09-02T09:10:58Z</time>
      </trkpt>
      <trkpt lat="49.75978" lon="4.89418">
        <ele>245.75</ele>
        <time>2018-09-02T09:11:14Z</time>
      </trkpt>
      <trkpt lat="49.75964" lon="4.89412">
        <ele>243.83</ele>
        <time>2018-09-02T09:11:27Z</time>
      </trkpt>
      <trkpt lat="49.75949" lon="4.89407">
        <ele>243.35</ele>
        <time>2018-09-02T09:11:44Z</time>
      </trkpt>
      <trkpt lat="49.75932" lon="4.894">
        <ele>242.87</ele>
        <time>2018-09-02T09:12:04Z</time>
      </trkpt>
      <trkpt lat="49.7592" lon="4.89393">
        <ele>243.35</ele>
        <time>2018-09-02T09:12:16Z</time>
      </trkpt>
      <trkpt lat="49.759" lon="4.8939">
        <ele>241.91</ele>
        <time>2018-09-02T09:12:35Z</time>
      </trkpt>
      <trkpt lat="49.75882" lon="4.89382">
        <ele>244.79</ele>
        <time>2018-09-02T09:12:49Z</time>
      </trkpt>
      <trkpt lat="49.7588" lon="4.8938">
        <ele>245.27</ele>
        <time>2018-09-02T09:12:51Z</time>
      </trkpt>
      <trkpt lat="49.75866" lon="4.89374">
        <ele>248.16</ele>
        <time>2018-09-02T09:13:07Z</time>
      </trkpt>
      <trkpt lat="49.75853" lon="4.89372">
        <ele>246.23</ele>
        <time>2018-09-02T09:13:20Z</time>
      </trkpt>
      <trkpt lat="49.75847" lon="4.89368">
        <ele>243.35</ele>
        <time>2018-09-02T09:13:34Z</time>
      </trkpt>
      <trkpt lat="49.7584" lon="4.89365">
        <ele>241.91</ele>
        <time>2018-09-02T09:13:47Z</time>
      </trkpt>
      <trkpt lat="49.75831" lon="4.89364">
        <ele>240.47</ele>
        <time>2018-09-02T09:14:07Z</time>
      </trkpt>
      <trkpt lat="49.75819" lon="4.89358">
        <ele>236.62</ele>
        <time>2018-09-02T09:14:20Z</time>
      </trkpt>
      <trkpt lat="49.75817" lon="4.89358">
        <ele>235.66</ele>
        <time>2018-09-02T09:14:25Z</time>
      </trkpt>
      <trkpt lat="49.75801" lon="4.89351">
        <ele>229.41</ele>
        <time>2018-09-02T09:14:40Z</time>
      </trkpt>
      <trkpt lat="49.75789" lon="4.89345">
        <ele>223.64</ele>
        <time>2018-09-02T09:14:53Z</time>
      </trkpt>
      <trkpt lat="49.75778" lon="4.89339">
        <ele>221.72</ele>
        <time>2018-09-02T09:15:06Z</time>
      </trkpt>
      <trkpt lat="49.75761" lon="4.89333">
        <ele>220.28</ele>
        <time>2018-09-02T09:15:22Z</time>
      </trkpt>
      <trkpt lat="49.75749" lon="4.89333">
        <ele>216.43</ele>
        <time>2018-09-02T09:15:35Z</time>
      </trkpt>
      <trkpt lat="49.75737" lon="4.8933">
        <ele>213.07</ele>
        <time>2018-09-02T09:15:45Z</time>
      </trkpt>
      <trkpt lat="49.75727" lon="4.89323">
        <ele>212.11</ele>
        <time>2018-09-02T09:15:53Z</time>
      </trkpt>
      <trkpt lat="49.75722" lon="4.89319">
        <ele>210.67</ele>
        <time>2018-09-02T09:15:58Z</time>
      </trkpt>
      <trkpt lat="49.75717" lon="4.89316">
        <ele>206.82</ele>
        <time>2018-09-02T09:16:09Z</time>
      </trkpt>
      <trkpt lat="49.75711" lon="4.89311">
        <ele>204.42</ele>
        <time>2018-09-02T09:16:23Z</time>
      </trkpt>
      <trkpt lat="49.75705" lon="4.89295">
        <ele>201.53</ele>
        <time>2018-09-02T09:16:38Z</time>
      </trkpt>
      <trkpt lat="49.75697" lon="4.89283">
        <ele>202.01</ele>
        <time>2018-09-02T09:16:49Z</time>
      </trkpt>
      <trkpt lat="49.75695" lon="4.89278">
        <ele>202.98</ele>
        <time>2018-09-02T09:16:52Z</time>
      </trkpt>
      <trkpt lat="49.75681" lon="4.8926">
        <ele>205.38</ele>
        <time>2018-09-02T09:17:08Z</time>
      </trkpt>
      <trkpt lat="49.75672" lon="4.89234">
        <ele>202.01</ele>
        <time>2018-09-02T09:17:23Z</time>
      </trkpt>
      <trkpt lat="49.75669" lon="4.89222">
        <ele>200.57</ele>
        <time>2018-09-02T09:17:32Z</time>
      </trkpt>
      <trkpt lat="49.75665" lon="4.89188">
        <ele>202.98</ele>
        <time>2018-09-02T09:17:50Z</time>
      </trkpt>
      <trkpt lat="49.75661" lon="4.89161">
        <ele>204.42</ele>
        <time>2018-09-02T09:18:03Z</time>
      </trkpt>
      <trkpt lat="49.75654" lon="4.89136">
        <ele>206.34</ele>
        <time>2018-09-02T09:18:19Z</time>
      </trkpt>
      <trkpt lat="49.75653" lon="4.89132">
        <ele>206.34</ele>
        <time>2018-09-02T09:18:22Z</time>
      </trkpt>
      <trkpt lat="49.75645" lon="4.89114">
        <ele>207.3</ele>
        <time>2018-09-02T09:18:40Z</time>
      </trkpt>
      <trkpt lat="49.75634" lon="4.89094">
        <ele>205.38</ele>
        <time>2018-09-02T09:18:53Z</time>
      </trkpt>
      <trkpt lat="49.7562" lon="4.89072">
        <ele>202.98</ele>
        <time>2018-09-02T09:19:10Z</time>
      </trkpt>
      <trkpt lat="49.75602" lon="4.89054">
        <ele>203.94</ele>
        <time>2018-09-02T09:19:26Z</time>
      </trkpt>
      <trkpt lat="49.75587" lon="4.89037">
        <ele>202.98</ele>
        <time>2018-09-02T09:19:43Z</time>
      </trkpt>
      <trkpt lat="49.75566" lon="4.89013">
        <ele>201.53</ele>
        <time>2018-09-02T09:20:01Z</time>
      </trkpt>
      <trkpt lat="49.75552" lon="4.88988">
        <ele>199.13</ele>
        <time>2018-09-02T09:20:15Z</time>
      </trkpt>
      <trkpt lat="49.7555" lon="4.88985">
        <ele>199.61</ele>
        <time>2018-09-02T09:20:17Z</time>
      </trkpt>
      <trkpt lat="49.75537" lon="4.88966">
        <ele>200.57</ele>
        <time>2018-09-02T09:20:35Z</time>
      </trkpt>
      <trkpt lat="49.75523" lon="4.88947">
        <ele>198.65</ele>
        <time>2018-09-02T09:20:49Z</time>
      </trkpt>
      <trkpt lat="49.75507" lon="4.88927">
        <ele>198.65</ele>
        <time>2018-09-02T09:21:04Z</time>
      </trkpt>
      <trkpt lat="49.75488" lon="4.88902">
        <ele>205.86</ele>
        <time>2018-09-02T09:21:23Z</time>
      </trkpt>
      <trkpt lat="49.75484" lon="4.88893">
        <ele>208.26</ele>
        <time>2018-09-02T09:21:29Z</time>
      </trkpt>
      <trkpt lat="49.75475" lon="4.88868">
        <ele>214.51</ele>
        <time>2018-09-02T09:21:42Z</time>
      </trkpt>
      <trkpt lat="49.75463" lon="4.88848">
        <ele>221.24</ele>
        <time>2018-09-02T09:21:59Z</time>
      </trkpt>
      <trkpt lat="49.75452" lon="4.88826">
        <ele>225.09</ele>
        <time>2018-09-02T09:22:14Z</time>
      </trkpt>
      <trkpt lat="49.75438" lon="4.88799">
        <ele>227.01</ele>
        <time>2018-09-02T09:22:30Z</time>
      </trkpt>
      <trkpt lat="49.75424" lon="4.88784">
        <ele>226.53</ele>
        <time>2018-09-02T09:22:43Z</time>
      </trkpt>
      <trkpt lat="49.7542" lon="4.88775">
        <ele>225.57</ele>
        <time>2018-09-02T09:22:57Z</time>
      </trkpt>
      <trkpt lat="49.75411" lon="4.88756">
        <ele>222.2</ele>
        <time>2018-09-02T09:23:09Z</time>
      </trkpt>
      <trkpt lat="49.75398" lon="4.88739">
        <ele>216.43</ele>
        <time>2018-09-02T09:23:25Z</time>
      </trkpt>
      <trkpt lat="49.75384" lon="4.88724">
        <ele>215.95</ele>
        <time>2018-09-02T09:23:39Z</time>
      </trkpt>
      <trkpt lat="49.75366" lon="4.88713">
        <ele>218.36</ele>
        <time>2018-09-02T09:23:53Z</time>
      </trkpt>
      <trkpt lat="49.75351" lon="4.88704">
        <ele>219.32</ele>
        <time>2018-09-02T09:24:06Z</time>
      </trkpt>
      <trkpt lat="49.75339" lon="4.88692">
        <ele>218.36</ele>
        <time>2018-09-02T09:24:21Z</time>
      </trkpt>
      <trkpt lat="49.75329" lon="4.88671">
        <ele>216.91</ele>
        <time>2018-09-02T09:24:37Z</time>
      </trkpt>
      <trkpt lat="49.75319" lon="4.88649">
        <ele>214.03</ele>
        <time>2018-09-02T09:24:53Z</time>
      </trkpt>
      <trkpt lat="49.7531" lon="4.88631">
        <ele>212.59</ele>
        <time>2018-09-02T09:25:05Z</time>
      </trkpt>
      <trkpt lat="49.75305" lon="4.88627">
        <ele>213.07</ele>
        <time>2018-09-02T09:25:09Z</time>
      </trkpt>
      <trkpt lat="49.75288" lon="4.88609">
        <ele>212.11</ele>
        <time>2018-09-02T09:25:23Z</time>
      </trkpt>
      <trkpt lat="49.75271" lon="4.88607">
        <ele>207.3</ele>
        <time>2018-09-02T09:25:38Z</time>
      </trkpt>
      <trkpt lat="49.75268" lon="4.88608">
        <ele>206.34</ele>
        <time>2018-09-02T09:25:40Z</time>
      </trkpt>
      <trkpt lat="49.75261" lon="4.88613">
        <ele>206.34</ele>
        <time>2018-09-02T09:25:54Z</time>
      </trkpt>
      <trkpt lat="49.75245" lon="4.88629">
        <ele>206.82</ele>
        <time>2018-09-02T09:26:10Z</time>
      </trkpt>
      <trkpt lat="49.75238" lon="4.88638">
        <ele>205.38</ele>
        <time>2018-09-02T09:26:25Z</time>
      </trkpt>
      <trkpt lat="49.75234" lon="4.88643">
        <ele>202.01</ele>
        <time>2018-09-02T09:26:39Z</time>
      </trkpt>
      <trkpt lat="49.75231" lon="4.88646">
        <ele>199.61</ele>
        <time>2018-09-02T09:26:54Z</time>
      </trkpt>
      <trkpt lat="49.75231" lon="4.88657">
        <ele>198.17</ele>
        <time>2018-09-02T09:26:58Z</time>
      </trkpt>
      <trkpt lat="49.7524" lon="4.88691">
        <ele>194.32</ele>
        <time>2018-09-02T09:27:15Z</time>
      </trkpt>
      <trkpt lat="49.75251" lon="4.88713">
        <ele>194.8</ele>
        <time>2018-09-02T09:27:31Z</time>
      </trkpt>
      <trkpt lat="49.75254" lon="4.88719">
        <ele>196.25</ele>
        <time>2018-09-02T09:27:37Z</time>
      </trkpt>
      <trkpt lat="49.75249" lon="4.88729">
        <ele>200.57</ele>
        <time>2018-09-02T09:27:49Z</time>
      </trkpt>
      <trkpt lat="49.75244" lon="4.88736">
        <ele>201.53</ele>
        <time>2018-09-02T09:27:56Z</time>
      </trkpt>
      <trkpt lat="49.75241" lon="4.88756">
        <ele>201.53</ele>
        <time>2018-09-02T09:28:12Z</time>
      </trkpt>
      <trkpt lat="49.75234" lon="4.88773">
        <ele>200.57</ele>
        <time>2018-09-02T09:28:27Z</time>
      </trkpt>
      <trkpt lat="49.7523" lon="4.88784">
        <ele>199.61</ele>
        <time>2018-09-02T09:28:33Z</time>
      </trkpt>
      <trkpt lat="49.75224" lon="4.88811">
        <ele>202.01</ele>
        <time>2018-09-02T09:28:48Z</time>
      </trkpt>
      <trkpt lat="49.75222" lon="4.88821">
        <ele>201.53</ele>
        <time>2018-09-02T09:28:53Z</time>
      </trkpt>
      <trkpt lat="49.75214" lon="4.88838">
        <ele>201.05</ele>
        <time>2018-09-02T09:29:06Z</time>
      </trkpt>
      <trkpt lat="49.75212" lon="4.88844">
        <ele>201.05</ele>
        <time>2018-09-02T09:29:13Z</time>
      </trkpt>
      <trkpt lat="49.75209" lon="4.88867">
        <ele>200.57</ele>
        <time>2018-09-02T09:29:26Z</time>
      </trkpt>
      <trkpt lat="49.75202" lon="4.88877">
        <ele>196.73</ele>
        <time>2018-09-02T09:29:36Z</time>
      </trkpt>
      <trkpt lat="49.75191" lon="4.88887">
        <ele>198.17</ele>
        <time>2018-09-02T09:29:48Z</time>
      </trkpt>
      <trkpt lat="49.7519" lon="4.88889">
        <ele>198.65</ele>
        <time>2018-09-02T09:29:50Z</time>
      </trkpt>
      <trkpt lat="49.75189" lon="4.88915">
        <ele>199.61</ele>
        <time>2018-09-02T09:30:05Z</time>
      </trkpt>
      <trkpt lat="49.75184" lon="4.88925">
        <ele>201.05</ele>
        <time>2018-09-02T09:30:14Z</time>
      </trkpt>
      <trkpt lat="49.75181" lon="4.88935">
        <ele>202.01</ele>
        <time>2018-09-02T09:30:20Z</time>
      </trkpt>
      <trkpt lat="49.75179" lon="4.88949">
        <ele>202.98</ele>
        <time>2018-09-02T09:30:35Z</time>
      </trkpt>
      <trkpt lat="49.75178" lon="4.8895">
        <ele>202.01</ele>
        <time>2018-09-02T09:30:40Z</time>
      </trkpt>
      <trkpt lat="49.75182" lon="4.88953">
        <ele>201.05</ele>
        <time>2018-09-02T09:30:46Z</time>
      </trkpt>
      <trkpt lat="49.7519" lon="4.88973">
        <ele>201.05</ele>
        <time>2018-09-02T09:31:02Z</time>
      </trkpt>
      <trkpt lat="49.75182" lon="4.88982">
        <ele>202.01</ele>
        <time>2018-09-02T09:31:14Z</time>
      </trkpt>
      <trkpt lat="49.75173" lon="4.88976">
        <ele>202.01</ele>
        <time>2018-09-02T09:31:24Z</time>
      </trkpt>
      <trkpt lat="49.75166" lon="4.88965">
        <ele>201.53</ele>
        <time>2018-09-02T09:31:32Z</time>
      </trkpt>
      <trkpt lat="49.75151" lon="4.88952">
        <ele>200.09</ele>
        <time>2018-09-02T09:31:48Z</time>
      </trkpt>
      <trkpt lat="49.75132" lon="4.88932">
        <ele>199.13</ele>
        <time>2018-09-02T09:32:04Z</time>
      </trkpt>
      <trkpt lat="49.75115" lon="4.88919">
        <ele>202.01</ele>
        <time>2018-09-02T09:32:22Z</time>
      </trkpt>
      <trkpt lat="49.75091" lon="4.88903">
        <ele>200.57</ele>
        <time>2018-09-02T09:32:40Z</time>
      </trkpt>
      <trkpt lat="49.75075" lon="4.88894">
        <ele>198.17</ele>
        <time>2018-09-02T09:32:58Z</time>
      </trkpt>
      <trkpt lat="49.75055" lon="4.88887">
        <ele>194.32</ele>
        <time>2018-09-02T09:33:15Z</time>
      </trkpt>
      <trkpt lat="49.75038" lon="4.88881">
        <ele>193.84</ele>
        <time>2018-09-02T09:33:30Z</time>
      </trkpt>
      <trkpt lat="49.75019" lon="4.88872">
        <ele>193.84</ele>
        <time>2018-09-02T09:33:44Z</time>
      </trkpt>
      <trkpt lat="49.74992" lon="4.88861">
        <ele>193.36</ele>
        <time>2018-09-02T09:34:03Z</time>
      </trkpt>
      <trkpt lat="49.74985" lon="4.88854">
        <ele>192.4</ele>
        <time>2018-09-02T09:34:09Z</time>
      </trkpt>
      <trkpt lat="49.74964" lon="4.8884">
        <ele>191.44</ele>
        <time>2018-09-02T09:34:28Z</time>
      </trkpt>
      <trkpt lat="49.74944" lon="4.88828">
        <ele>189.04</ele>
        <time>2018-09-02T09:34:44Z</time>
      </trkpt>
      <trkpt lat="49.74926" lon="4.88819">
        <ele>188.08</ele>
        <time>2018-09-02T09:34:59Z</time>
      </trkpt>
      <trkpt lat="49.74917" lon="4.8881">
        <ele>187.59</ele>
        <time>2018-09-02T09:35:06Z</time>
      </trkpt>
      <trkpt lat="49.74902" lon="4.88806">
        <ele>189.52</ele>
        <time>2018-09-02T09:35:19Z</time>
      </trkpt>
      <trkpt lat="49.74901" lon="4.88807">
        <ele>188.56</ele>
        <time>2018-09-02T09:35:23Z</time>
      </trkpt>
      <trkpt lat="49.74901" lon="4.8882">
        <ele>188.08</ele>
        <time>2018-09-02T09:35:34Z</time>
      </trkpt>
      <trkpt lat="49.74901" lon="4.8882">
        <ele>188.08</ele>
        <time>2018-09-02T09:35:35Z</time>
      </trkpt>
      <trkpt lat="49.74895" lon="4.88826">
        <ele>188.08</ele>
        <time>2018-09-02T09:35:48Z</time>
      </trkpt>
      <trkpt lat="49.74895" lon="4.88827">
        <ele>188.56</ele>
        <time>2018-09-02T09:35:51Z</time>
      </trkpt>
      <trkpt lat="49.74894" lon="4.88832">
        <ele>189.04</ele>
        <time>2018-09-02T09:35:57Z</time>
      </trkpt>
      <trkpt lat="49.74892" lon="4.88837">
        <ele>190</ele>
        <time>2018-09-02T09:36:02Z</time>
      </trkpt>
      <trkpt lat="49.74889" lon="4.8885">
        <ele>192.88</ele>
        <time>2018-09-02T09:36:16Z</time>
      </trkpt>
      <trkpt lat="49.74887" lon="4.88861">
        <ele>194.8</ele>
        <time>2018-09-02T09:36:29Z</time>
      </trkpt>
      <trkpt lat="49.74881" lon="4.88876">
        <ele>198.17</ele>
        <time>2018-09-02T09:36:41Z</time>
      </trkpt>
      <trkpt lat="49.74875" lon="4.88892">
        <ele>201.53</ele>
        <time>2018-09-02T09:36:54Z</time>
      </trkpt>
      <trkpt lat="49.7487" lon="4.88915">
        <ele>202.98</ele>
        <time>2018-09-02T09:37:07Z</time>
      </trkpt>
      <trkpt lat="49.74868" lon="4.88934">
        <ele>204.9</ele>
        <time>2018-09-02T09:37:22Z</time>
      </trkpt>
      <trkpt lat="49.74863" lon="4.8895">
        <ele>208.74</ele>
        <time>2018-09-02T09:37:35Z</time>
      </trkpt>
      <trkpt lat="49.74859" lon="4.88973">
        <ele>211.63</ele>
        <time>2018-09-02T09:37:51Z</time>
      </trkpt>
      <trkpt lat="49.74857" lon="4.8898">
        <ele>212.59</ele>
        <time>2018-09-02T09:37:55Z</time>
      </trkpt>
      <trkpt lat="49.74853" lon="4.89001">
        <ele>213.55</ele>
        <time>2018-09-02T09:38:08Z</time>
      </trkpt>
      <trkpt lat="49.74853" lon="4.89005">
        <ele>213.55</ele>
        <time>2018-09-02T09:38:09Z</time>
      </trkpt>
      <trkpt lat="49.74853" lon="4.8901">
        <ele>213.55</ele>
        <time>2018-09-02T09:38:11Z</time>
      </trkpt>
      <trkpt lat="49.74847" lon="4.8904">
        <ele>212.59</ele>
        <time>2018-09-02T09:38:28Z</time>
      </trkpt>
      <trkpt lat="49.74843" lon="4.89061">
        <ele>214.03</ele>
        <time>2018-09-02T09:38:39Z</time>
      </trkpt>
      <trkpt lat="49.74841" lon="4.89094">
        <ele>217.88</ele>
        <time>2018-09-02T09:38:57Z</time>
      </trkpt>
      <trkpt lat="49.74837" lon="4.8912">
        <ele>222.68</ele>
        <time>2018-09-02T09:39:12Z</time>
      </trkpt>
      <trkpt lat="49.74828" lon="4.89147">
        <ele>229.41</ele>
        <time>2018-09-02T09:39:29Z</time>
      </trkpt>
      <trkpt lat="49.74822" lon="4.89171">
        <ele>232.3</ele>
        <time>2018-09-02T09:39:45Z</time>
      </trkpt>
      <trkpt lat="49.74817" lon="4.89194">
        <ele>232.3</ele>
        <time>2018-09-02T09:40:01Z</time>
      </trkpt>
      <trkpt lat="49.74808" lon="4.89223">
        <ele>230.37</ele>
        <time>2018-09-02T09:40:19Z</time>
      </trkpt>
      <trkpt lat="49.74802" lon="4.89253">
        <ele>229.89</ele>
        <time>2018-09-02T09:40:36Z</time>
      </trkpt>
      <trkpt lat="49.74797" lon="4.89271">
        <ele>229.89</ele>
        <time>2018-09-02T09:40:46Z</time>
      </trkpt>
      <trkpt lat="49.74794" lon="4.89305">
        <ele>232.78</ele>
        <time>2018-09-02T09:41:02Z</time>
      </trkpt>
      <trkpt lat="49.74791" lon="4.89336">
        <ele>236.14</ele>
        <time>2018-09-02T09:41:18Z</time>
      </trkpt>
      <trkpt lat="49.74784" lon="4.89367">
        <ele>236.14</ele>
        <time>2018-09-02T09:41:35Z</time>
      </trkpt>
      <trkpt lat="49.74778" lon="4.89392">
        <ele>236.62</ele>
        <time>2018-09-02T09:41:51Z</time>
      </trkpt>
      <trkpt lat="49.74772" lon="4.89417">
        <ele>240.47</ele>
        <time>2018-09-02T09:42:08Z</time>
      </trkpt>
      <trkpt lat="49.74767" lon="4.89444">
        <ele>239.51</ele>
        <time>2018-09-02T09:42:24Z</time>
      </trkpt>
      <trkpt lat="49.7476" lon="4.89474">
        <ele>233.74</ele>
        <time>2018-09-02T09:42:40Z</time>
      </trkpt>
      <trkpt lat="49.74757" lon="4.89495">
        <ele>229.89</ele>
        <time>2018-09-02T09:42:55Z</time>
      </trkpt>
      <trkpt lat="49.74755" lon="4.89506">
        <ele>225.09</ele>
        <time>2018-09-02T09:43:11Z</time>
      </trkpt>
      <trkpt lat="49.74751" lon="4.89533">
        <ele>221.24</ele>
        <time>2018-09-02T09:43:29Z</time>
      </trkpt>
      <trkpt lat="49.74742" lon="4.89566">
        <ele>218.36</ele>
        <time>2018-09-02T09:43:48Z</time>
      </trkpt>
      <trkpt lat="49.74735" lon="4.89599">
        <ele>222.68</ele>
        <time>2018-09-02T09:44:06Z</time>
      </trkpt>
      <trkpt lat="49.74733" lon="4.89628">
        <ele>225.57</ele>
        <time>2018-09-02T09:44:22Z</time>
      </trkpt>
      <trkpt lat="49.74731" lon="4.89647">
        <ele>221.72</ele>
        <time>2018-09-02T09:44:35Z</time>
      </trkpt>
      <trkpt lat="49.74729" lon="4.89672">
        <ele>214.51</ele>
        <time>2018-09-02T09:44:51Z</time>
      </trkpt>
      <trkpt lat="49.7473" lon="4.89693">
        <ele>211.63</ele>
        <time>2018-09-02T09:45:07Z</time>
      </trkpt>
      <trkpt lat="49.74735" lon="4.89715">
        <ele>209.7</ele>
        <time>2018-09-02T09:45:23Z</time>
      </trkpt>
      <trkpt lat="49.74739" lon="4.89737">
        <ele>206.82</ele>
        <time>2018-09-02T09:45:36Z</time>
      </trkpt>
      <trkpt lat="49.74742" lon="4.8975">
        <ele>206.82</ele>
        <time>2018-09-02T09:45:44Z</time>
      </trkpt>
      <trkpt lat="49.7475" lon="4.89777">
        <ele>209.22</ele>
        <time>2018-09-02T09:46:00Z</time>
      </trkpt>
      <trkpt lat="49.74756" lon="4.89799">
        <ele>210.19</ele>
        <time>2018-09-02T09:46:16Z</time>
      </trkpt>
      <trkpt lat="49.74762" lon="4.89818">
        <ele>212.11</ele>
        <time>2018-09-02T09:46:30Z</time>
      </trkpt>
      <trkpt lat="49.74763" lon="4.89821">
        <ele>212.59</ele>
        <time>2018-09-02T09:46:32Z</time>
      </trkpt>
      <trkpt lat="49.74773" lon="4.89839">
        <ele>212.11</ele>
        <time>2018-09-02T09:46:47Z</time>
      </trkpt>
      <trkpt lat="49.74776" lon="4.89859">
        <ele>207.78</ele>
        <time>2018-09-02T09:47:02Z</time>
      </trkpt>
      <trkpt lat="49.74778" lon="4.89865">
        <ele>205.86</ele>
        <time>2018-09-02T09:47:18Z</time>
      </trkpt>
      <trkpt lat="49.74777" lon="4.89877">
        <ele>205.38</ele>
        <time>2018-09-02T09:47:33Z</time>
      </trkpt>
      <trkpt lat="49.74781" lon="4.89899">
        <ele>201.53</ele>
        <time>2018-09-02T09:47:46Z</time>
      </trkpt>
      <trkpt lat="49.74788" lon="4.89923">
        <ele>192.88</ele>
        <time>2018-09-02T09:47:59Z</time>
      </trkpt>
      <trkpt lat="49.74788" lon="4.89928">
        <ele>192.88</ele>
        <time>2018-09-02T09:48:02Z</time>
      </trkpt>
      <trkpt lat="49.74786" lon="4.89947">
        <ele>192.4</ele>
        <time>2018-09-02T09:48:16Z</time>
      </trkpt>
      <trkpt lat="49.74784" lon="4.89967">
        <ele>189.04</ele>
        <time>2018-09-02T09:48:29Z</time>
      </trkpt>
      <trkpt lat="49.74781" lon="4.89977">
        <ele>184.23</ele>
        <time>2018-09-02T09:48:40Z</time>
      </trkpt>
      <trkpt lat="49.7478" lon="4.89984">
        <ele>182.79</ele>
        <time>2018-09-02T09:48:54Z</time>
      </trkpt>
      <trkpt lat="49.74778" lon="4.89987">
        <ele>181.83</ele>
        <time>2018-09-02T09:49:08Z</time>
      </trkpt>
      <trkpt lat="49.74771" lon="4.89991">
        <ele>180.87</ele>
        <time>2018-09-02T09:49:21Z</time>
      </trkpt>
      <trkpt lat="49.74763" lon="4.90001">
        <ele>178.94</ele>
        <time>2018-09-02T09:49:37Z</time>
      </trkpt>
      <trkpt lat="49.74758" lon="4.90005">
        <ele>178.46</ele>
        <time>2018-09-02T09:49:44Z</time>
      </trkpt>
      <trkpt lat="49.74741" lon="4.9001">
        <ele>175.58</ele>
        <time>2018-09-02T09:49:58Z</time>
      </trkpt>
      <trkpt lat="49.74722" lon="4.90028">
        <ele>176.06</ele>
        <time>2018-09-02T09:50:15Z</time>
      </trkpt>
      <trkpt lat="49.74706" lon="4.90042">
        <ele>179.42</ele>
        <time>2018-09-02T09:50:32Z</time>
      </trkpt>
      <trkpt lat="49.74688" lon="4.90052">
        <ele>181.35</ele>
        <time>2018-09-02T09:50:48Z</time>
      </trkpt>
      <trkpt lat="49.74671" lon="4.9006">
        <ele>178.46</ele>
        <time>2018-09-02T09:51:05Z</time>
      </trkpt>
      <trkpt lat="49.74651" lon="4.90069">
        <ele>178.46</ele>
        <time>2018-09-02T09:51:21Z</time>
      </trkpt>
      <trkpt lat="49.74625" lon="4.90085">
        <ele>178.94</ele>
        <time>2018-09-02T09:51:41Z</time>
      </trkpt>
      <trkpt lat="49.74604" lon="4.90106">
        <ele>182.31</ele>
        <time>2018-09-02T09:52:00Z</time>
      </trkpt>
      <trkpt lat="49.74595" lon="4.90119">
        <ele>182.79</ele>
        <time>2018-09-02T09:52:14Z</time>
      </trkpt>
      <trkpt lat="49.74578" lon="4.90144">
        <ele>183.75</ele>
        <time>2018-09-02T09:52:33Z</time>
      </trkpt>
      <trkpt lat="49.74563" lon="4.90169">
        <ele>183.75</ele>
        <time>2018-09-02T09:52:52Z</time>
      </trkpt>
      <trkpt lat="49.74547" lon="4.90189">
        <ele>188.08</ele>
        <time>2018-09-02T09:53:07Z</time>
      </trkpt>
      <trkpt lat="49.74535" lon="4.90207">
        <ele>191.92</ele>
        <time>2018-09-02T09:53:26Z</time>
      </trkpt>
      <trkpt lat="49.74514" lon="4.90227">
        <ele>195.77</ele>
        <time>2018-09-02T09:53:46Z</time>
      </trkpt>
      <trkpt lat="49.74513" lon="4.90227">
        <ele>195.77</ele>
        <time>2018-09-02T09:53:47Z</time>
      </trkpt>
      <trkpt lat="49.74497" lon="4.90244">
        <ele>201.53</ele>
        <time>2018-09-02T09:54:02Z</time>
      </trkpt>
      <trkpt lat="49.74478" lon="4.90266">
        <ele>207.78</ele>
        <time>2018-09-02T09:54:18Z</time>
      </trkpt>
      <trkpt lat="49.74466" lon="4.90282">
        <ele>211.15</ele>
        <time>2018-09-02T09:54:35Z</time>
      </trkpt>
      <trkpt lat="49.74454" lon="4.90304">
        <ele>212.11</ele>
        <time>2018-09-02T09:54:52Z</time>
      </trkpt>
      <trkpt lat="49.74448" lon="4.90326">
        <ele>210.67</ele>
        <time>2018-09-02T09:55:05Z</time>
      </trkpt>
      <trkpt lat="49.74442" lon="4.90344">
        <ele>208.26</ele>
        <time>2018-09-02T09:55:21Z</time>
      </trkpt>
      <trkpt lat="49.74442" lon="4.9035">
        <ele>209.7</ele>
        <time>2018-09-02T09:55:36Z</time>
      </trkpt>
      <trkpt lat="49.74442" lon="4.90363">
        <ele>212.11</ele>
        <time>2018-09-02T09:55:48Z</time>
      </trkpt>
      <trkpt lat="49.74441" lon="4.90377">
        <ele>214.03</ele>
        <time>2018-09-02T09:56:02Z</time>
      </trkpt>
      <trkpt lat="49.74441" lon="4.9038">
        <ele>214.99</ele>
        <time>2018-09-02T09:56:03Z</time>
      </trkpt>
      <trkpt lat="49.74443" lon="4.90395">
        <ele>216.43</ele>
        <time>2018-09-02T09:56:12Z</time>
      </trkpt>
      <trkpt lat="49.74447" lon="4.90424">
        <ele>218.36</ele>
        <time>2018-09-02T09:56:24Z</time>
      </trkpt>
      <trkpt lat="49.74451" lon="4.90444">
        <ele>220.28</ele>
        <time>2018-09-02T09:56:36Z</time>
      </trkpt>
      <trkpt lat="49.74451" lon="4.90449">
        <ele>220.28</ele>
        <time>2018-09-02T09:56:41Z</time>
      </trkpt>
      <trkpt lat="49.74453" lon="4.90475">
        <ele>219.32</ele>
        <time>2018-09-02T09:56:52Z</time>
      </trkpt>
      <trkpt lat="49.74459" lon="4.90497">
        <ele>216.91</ele>
        <time>2018-09-02T09:57:05Z</time>
      </trkpt>
      <trkpt lat="49.74461" lon="4.9051">
        <ele>217.4</ele>
        <time>2018-09-02T09:57:23Z</time>
      </trkpt>
      <trkpt lat="49.74463" lon="4.90518">
        <ele>217.4</ele>
        <time>2018-09-02T09:57:30Z</time>
      </trkpt>
      <trkpt lat="49.74466" lon="4.90528">
        <ele>216.91</ele>
        <time>2018-09-02T09:57:36Z</time>
      </trkpt>
      <trkpt lat="49.74466" lon="4.90569">
        <ele>218.36</ele>
        <time>2018-09-02T09:57:50Z</time>
      </trkpt>
      <trkpt lat="49.74454" lon="4.90592">
        <ele>217.88</ele>
        <time>2018-09-02T09:58:07Z</time>
      </trkpt>
      <trkpt lat="49.74445" lon="4.90612">
        <ele>216.91</ele>
        <time>2018-09-02T09:58:20Z</time>
      </trkpt>
      <trkpt lat="49.74438" lon="4.90621">
        <ele>217.88</ele>
        <time>2018-09-02T09:58:30Z</time>
      </trkpt>
      <trkpt lat="49.74434" lon="4.90627">
        <ele>218.36</ele>
        <time>2018-09-02T09:58:34Z</time>
      </trkpt>
      <trkpt lat="49.74423" lon="4.90639">
        <ele>217.88</ele>
        <time>2018-09-02T09:58:44Z</time>
      </trkpt>
      <trkpt lat="49.74403" lon="4.90642">
        <ele>219.32</ele>
        <time>2018-09-02T09:59:00Z</time>
      </trkpt>
      <trkpt lat="49.74384" lon="4.90645">
        <ele>218.84</ele>
        <time>2018-09-02T09:59:15Z</time>
      </trkpt>
      <trkpt lat="49.74372" lon="4.90649">
        <ele>217.88</ele>
        <time>2018-09-02T09:59:29Z</time>
      </trkpt>
      <trkpt lat="49.74359" lon="4.90654">
        <ele>216.91</ele>
        <time>2018-09-02T09:59:44Z</time>
      </trkpt>
      <trkpt lat="49.74342" lon="4.90668">
        <ele>218.36</ele>
        <time>2018-09-02T09:59:59Z</time>
      </trkpt>
      <trkpt lat="49.74325" lon="4.90683">
        <ele>219.8</ele>
        <time>2018-09-02T10:00:13Z</time>
      </trkpt>
      <trkpt lat="49.74317" lon="4.90692">
        <ele>219.32</ele>
        <time>2018-09-02T10:00:24Z</time>
      </trkpt>
      <trkpt lat="49.74314" lon="4.90695">
        <ele>218.84</ele>
        <time>2018-09-02T10:00:27Z</time>
      </trkpt>
      <trkpt lat="49.74297" lon="4.90715">
        <ele>218.84</ele>
        <time>2018-09-02T10:00:45Z</time>
      </trkpt>
      <trkpt lat="49.74296" lon="4.90716">
        <ele>218.84</ele>
        <time>2018-09-02T10:00:46Z</time>
      </trkpt>
      <trkpt lat="49.74283" lon="4.90733">
        <ele>218.84</ele>
        <time>2018-09-02T10:00:58Z</time>
      </trkpt>
      <trkpt lat="49.74275" lon="4.90753">
        <ele>217.88</ele>
        <time>2018-09-02T10:01:13Z</time>
      </trkpt>
      <trkpt lat="49.74273" lon="4.90757">
        <ele>217.4</ele>
        <time>2018-09-02T10:01:16Z</time>
      </trkpt>
      <trkpt lat="49.74257" lon="4.90782">
        <ele>216.91</ele>
        <time>2018-09-02T10:01:32Z</time>
      </trkpt>
      <trkpt lat="49.74247" lon="4.90798">
        <ele>215.47</ele>
        <time>2018-09-02T10:01:45Z</time>
      </trkpt>
      <trkpt lat="49.7424" lon="4.90809">
        <ele>215.47</ele>
        <time>2018-09-02T10:01:56Z</time>
      </trkpt>
      <trkpt lat="49.74232" lon="4.9082">
        <ele>215.95</ele>
        <time>2018-09-02T10:02:03Z</time>
      </trkpt>
      <trkpt lat="49.74218" lon="4.90844">
        <ele>216.43</ele>
        <time>2018-09-02T10:02:19Z</time>
      </trkpt>
      <trkpt lat="49.74207" lon="4.90867">
        <ele>215.47</ele>
        <time>2018-09-02T10:02:36Z</time>
      </trkpt>
      <trkpt lat="49.74201" lon="4.90887">
        <ele>215.47</ele>
        <time>2018-09-02T10:02:49Z</time>
      </trkpt>
      <trkpt lat="49.74195" lon="4.90915">
        <ele>212.11</ele>
        <time>2018-09-02T10:03:03Z</time>
      </trkpt>
      <trkpt lat="49.74193" lon="4.90931">
        <ele>208.74</ele>
        <time>2018-09-02T10:03:17Z</time>
      </trkpt>
      <trkpt lat="49.74188" lon="4.90952">
        <ele>208.74</ele>
        <time>2018-09-02T10:03:32Z</time>
      </trkpt>
      <trkpt lat="49.74185" lon="4.90964">
        <ele>208.26</ele>
        <time>2018-09-02T10:03:40Z</time>
      </trkpt>
      <trkpt lat="49.74176" lon="4.90998">
        <ele>206.34</ele>
        <time>2018-09-02T10:03:56Z</time>
      </trkpt>
      <trkpt lat="49.74173" lon="4.9102">
        <ele>204.42</ele>
        <time>2018-09-02T10:04:09Z</time>
      </trkpt>
      <trkpt lat="49.7417" lon="4.91032">
        <ele>204.42</ele>
        <time>2018-09-02T10:04:20Z</time>
      </trkpt>
      <trkpt lat="49.74159" lon="4.91062">
        <ele>204.9</ele>
        <time>2018-09-02T10:04:37Z</time>
      </trkpt>
      <trkpt lat="49.74152" lon="4.91093">
        <ele>202.49</ele>
        <time>2018-09-02T10:04:52Z</time>
      </trkpt>
      <trkpt lat="49.74152" lon="4.91117">
        <ele>199.61</ele>
        <time>2018-09-02T10:05:07Z</time>
      </trkpt>
      <trkpt lat="49.74143" lon="4.91145">
        <ele>200.57</ele>
        <time>2018-09-02T10:05:30Z</time>
      </trkpt>
      <trkpt lat="49.74141" lon="4.91153">
        <ele>201.05</ele>
        <time>2018-09-02T10:05:35Z</time>
      </trkpt>
      <trkpt lat="49.74129" lon="4.91189">
        <ele>201.05</ele>
        <time>2018-09-02T10:05:56Z</time>
      </trkpt>
      <trkpt lat="49.7412" lon="4.91217">
        <ele>203.46</ele>
        <time>2018-09-02T10:06:15Z</time>
      </trkpt>
      <trkpt lat="49.74116" lon="4.91233">
        <ele>204.42</ele>
        <time>2018-09-02T10:06:22Z</time>
      </trkpt>
      <trkpt lat="49.74114" lon="4.91244">
        <ele>203.46</ele>
        <time>2018-09-02T10:06:27Z</time>
      </trkpt>
      <trkpt lat="49.74113" lon="4.91263">
        <ele>199.61</ele>
        <time>2018-09-02T10:06:41Z</time>
      </trkpt>
      <trkpt lat="49.74111" lon="4.91272">
        <ele>198.65</ele>
        <time>2018-09-02T10:06:47Z</time>
      </trkpt>
      <trkpt lat="49.74111" lon="4.9128">
        <ele>197.21</ele>
        <time>2018-09-02T10:06:52Z</time>
      </trkpt>
      <trkpt lat="49.74106" lon="4.91308">
        <ele>195.28</ele>
        <time>2018-09-02T10:07:06Z</time>
      </trkpt>
      <trkpt lat="49.74108" lon="4.91331">
        <ele>193.36</ele>
        <time>2018-09-02T10:07:22Z</time>
      </trkpt>
      <trkpt lat="49.74106" lon="4.91351">
        <ele>193.84</ele>
        <time>2018-09-02T10:07:37Z</time>
      </trkpt>
      <trkpt lat="49.74102" lon="4.9139">
        <ele>194.8</ele>
        <time>2018-09-02T10:07:55Z</time>
      </trkpt>
      <trkpt lat="49.74102" lon="4.91416">
        <ele>192.88</ele>
        <time>2018-09-02T10:08:09Z</time>
      </trkpt>
      <trkpt lat="49.741" lon="4.91443">
        <ele>194.8</ele>
        <time>2018-09-02T10:08:27Z</time>
      </trkpt>
      <trkpt lat="49.74101" lon="4.91473">
        <ele>193.36</ele>
        <time>2018-09-02T10:08:41Z</time>
      </trkpt>
      <trkpt lat="49.74104" lon="4.91492">
        <ele>192.4</ele>
        <time>2018-09-02T10:08:55Z</time>
      </trkpt>
      <trkpt lat="49.74101" lon="4.91516">
        <ele>194.32</ele>
        <time>2018-09-02T10:09:12Z</time>
      </trkpt>
      <trkpt lat="49.7409" lon="4.91552">
        <ele>192.88</ele>
        <time>2018-09-02T10:09:29Z</time>
      </trkpt>
      <trkpt lat="49.74084" lon="4.91567">
        <ele>191.44</ele>
        <time>2018-09-02T10:09:44Z</time>
      </trkpt>
      <trkpt lat="49.74074" lon="4.91584">
        <ele>190</ele>
        <time>2018-09-02T10:09:58Z</time>
      </trkpt>
      <trkpt lat="49.74063" lon="4.91604">
        <ele>189.04</ele>
        <time>2018-09-02T10:10:10Z</time>
      </trkpt>
      <trkpt lat="49.7406" lon="4.91615">
        <ele>188.56</ele>
        <time>2018-09-02T10:10:16Z</time>
      </trkpt>
      <trkpt lat="49.7405" lon="4.91635">
        <ele>189.52</ele>
        <time>2018-09-02T10:10:32Z</time>
      </trkpt>
      <trkpt lat="49.74049" lon="4.91642">
        <ele>189.52</ele>
        <time>2018-09-02T10:10:36Z</time>
      </trkpt>
      <trkpt lat="49.74038" lon="4.91668">
        <ele>188.08</ele>
        <time>2018-09-02T10:10:52Z</time>
      </trkpt>
      <trkpt lat="49.74031" lon="4.91691">
        <ele>184.23</ele>
        <time>2018-09-02T10:11:05Z</time>
      </trkpt>
      <trkpt lat="49.74026" lon="4.91708">
        <ele>182.31</ele>
        <time>2018-09-02T10:11:21Z</time>
      </trkpt>
      <trkpt lat="49.74021" lon="4.91718">
        <ele>181.83</ele>
        <time>2018-09-02T10:11:35Z</time>
      </trkpt>
      <trkpt lat="49.7402" lon="4.91721">
        <ele>181.83</ele>
        <time>2018-09-02T10:11:37Z</time>
      </trkpt>
      <trkpt lat="49.74017" lon="4.91728">
        <ele>181.83</ele>
        <time>2018-09-02T10:11:41Z</time>
      </trkpt>
      <trkpt lat="49.74016" lon="4.91732">
        <ele>181.83</ele>
        <time>2018-09-02T10:11:44Z</time>
      </trkpt>
      <trkpt lat="49.74015" lon="4.91735">
        <ele>181.83</ele>
        <time>2018-09-02T10:11:46Z</time>
      </trkpt>
      <trkpt lat="49.74011" lon="4.91751">
        <ele>179.42</ele>
        <time>2018-09-02T10:12:00Z</time>
      </trkpt>
      <trkpt lat="49.74004" lon="4.91771">
        <ele>178.46</ele>
        <time>2018-09-02T10:12:11Z</time>
      </trkpt>
      <trkpt lat="49.74003" lon="4.91773">
        <ele>178.46</ele>
        <time>2018-09-02T10:12:12Z</time>
      </trkpt>
      <trkpt lat="49.73995" lon="4.918">
        <ele>179.42</ele>
        <time>2018-09-02T10:12:30Z</time>
      </trkpt>
      <trkpt lat="49.73991" lon="4.91815">
        <ele>178.46</ele>
        <time>2018-09-02T10:12:39Z</time>
      </trkpt>
      <trkpt lat="49.73988" lon="4.91825">
        <ele>177.5</ele>
        <time>2018-09-02T10:12:49Z</time>
      </trkpt>
      <trkpt lat="49.73981" lon="4.9184">
        <ele>176.06</ele>
        <time>2018-09-02T10:13:02Z</time>
      </trkpt>
      <trkpt lat="49.73976" lon="4.91859">
        <ele>176.06</ele>
        <time>2018-09-02T10:13:15Z</time>
      </trkpt>
      <trkpt lat="49.73973" lon="4.91867">
        <ele>175.1</ele>
        <time>2018-09-02T10:13:22Z</time>
      </trkpt>
      <trkpt lat="49.73964" lon="4.91898">
        <ele>177.98</ele>
        <time>2018-09-02T10:13:38Z</time>
      </trkpt>
      <trkpt lat="49.73965" lon="4.91922">
        <ele>177.98</ele>
        <time>2018-09-02T10:13:52Z</time>
      </trkpt>
      <trkpt lat="49.73965" lon="4.91958">
        <ele>178.46</ele>
        <time>2018-09-02T10:14:08Z</time>
      </trkpt>
      <trkpt lat="49.73966" lon="4.9198">
        <ele>177.5</ele>
        <time>2018-09-02T10:14:22Z</time>
      </trkpt>
      <trkpt lat="49.73965" lon="4.92001">
        <ele>177.98</ele>
        <time>2018-09-02T10:14:35Z</time>
      </trkpt>
      <trkpt lat="49.73961" lon="4.92026">
        <ele>178.46</ele>
        <time>2018-09-02T10:14:47Z</time>
      </trkpt>
      <trkpt lat="49.73963" lon="4.92049">
        <ele>178.94</ele>
        <time>2018-09-02T10:15:03Z</time>
      </trkpt>
      <trkpt lat="49.73963" lon="4.92051">
        <ele>178.94</ele>
        <time>2018-09-02T10:15:04Z</time>
      </trkpt>
      <trkpt lat="49.73963" lon="4.9206">
        <ele>180.38</ele>
        <time>2018-09-02T10:15:08Z</time>
      </trkpt>
      <trkpt lat="49.73964" lon="4.92064">
        <ele>180.38</ele>
        <time>2018-09-02T10:15:10Z</time>
      </trkpt>
      <trkpt lat="49.73962" lon="4.92078">
        <ele>180.87</ele>
        <time>2018-09-02T10:15:16Z</time>
      </trkpt>
      <trkpt lat="49.73966" lon="4.92104">
        <ele>184.23</ele>
        <time>2018-09-02T10:15:31Z</time>
      </trkpt>
      <trkpt lat="49.73969" lon="4.92128">
        <ele>186.63</ele>
        <time>2018-09-02T10:15:44Z</time>
      </trkpt>
      <trkpt lat="49.7397" lon="4.92133">
        <ele>187.11</ele>
        <time>2018-09-02T10:15:46Z</time>
      </trkpt>
      <trkpt lat="49.73969" lon="4.92145">
        <ele>188.56</ele>
        <time>2018-09-02T10:15:52Z</time>
      </trkpt>
      <trkpt lat="49.73969" lon="4.92167">
        <ele>192.88</ele>
        <time>2018-09-02T10:16:08Z</time>
      </trkpt>
      <trkpt lat="49.73969" lon="4.92173">
        <ele>193.84</ele>
        <time>2018-09-02T10:16:11Z</time>
      </trkpt>
      <trkpt lat="49.7397" lon="4.92177">
        <ele>193.84</ele>
        <time>2018-09-02T10:16:13Z</time>
      </trkpt>
      <trkpt lat="49.73969" lon="4.92186">
        <ele>193.84</ele>
        <time>2018-09-02T10:16:17Z</time>
      </trkpt>
      <trkpt lat="49.73968" lon="4.92195">
        <ele>194.32</ele>
        <time>2018-09-02T10:16:21Z</time>
      </trkpt>
      <trkpt lat="49.73961" lon="4.92229">
        <ele>196.25</ele>
        <time>2018-09-02T10:16:36Z</time>
      </trkpt>
      <trkpt lat="49.7396" lon="4.92239">
        <ele>196.25</ele>
        <time>2018-09-02T10:16:50Z</time>
      </trkpt>
      <trkpt lat="49.73954" lon="4.92262">
        <ele>198.17</ele>
        <time>2018-09-02T10:17:05Z</time>
      </trkpt>
      <trkpt lat="49.73943" lon="4.9231">
        <ele>204.42</ele>
        <time>2018-09-02T10:17:18Z</time>
      </trkpt>
      <trkpt lat="49.73944" lon="4.92348">
        <ele>205.86</ele>
        <time>2018-09-02T10:17:30Z</time>
      </trkpt>
      <trkpt lat="49.7394" lon="4.92375">
        <ele>203.46</ele>
        <time>2018-09-02T10:17:42Z</time>
      </trkpt>
      <trkpt lat="49.73938" lon="4.92386">
        <ele>197.69</ele>
        <time>2018-09-02T10:17:57Z</time>
      </trkpt>
      <trkpt lat="49.73929" lon="4.924">
        <ele>197.69</ele>
        <time>2018-09-02T10:18:15Z</time>
      </trkpt>
      <trkpt lat="49.73928" lon="4.92404">
        <ele>198.65</ele>
        <time>2018-09-02T10:18:27Z</time>
      </trkpt>
      <trkpt lat="49.73927" lon="4.92405">
        <ele>199.13</ele>
        <time>2018-09-02T10:18:30Z</time>
      </trkpt>
      <trkpt lat="49.73913" lon="4.92421">
        <ele>198.17</ele>
        <time>2018-09-02T10:18:42Z</time>
      </trkpt>
      <trkpt lat="49.73911" lon="4.92422">
        <ele>198.65</ele>
        <time>2018-09-02T10:18:55Z</time>
      </trkpt>
      <trkpt lat="49.739" lon="4.92433">
        <ele>201.05</ele>
        <time>2018-09-02T10:19:06Z</time>
      </trkpt>
      <trkpt lat="49.73895" lon="4.92435">
        <ele>204.9</ele>
        <time>2018-09-02T10:19:17Z</time>
      </trkpt>
    </trkseg>
  </trk>
</gpx>